Observation data for Happy on 06/17/2019      Previous  Date  Next       Current Mesonet Observations  Soil Data  Daily Summary Page  Observations in Plain Language
KHA2 170500Z 11006KT 17/14 A3004 RMK A01 T01690144  RH  085%=      5-min Rain = 0
KHA2 170501Z 11006KT 17/14 A3004 RMK A01 T01680144  RH  086%=      5-min Rain = 0
KHA2 170502Z 11006KT 17/14 A3004 RMK A01 T01670144  RH  086%=      5-min Rain = 0
KHA2 170503Z 11006KT 17/14 A3004 RMK A01 T01670144  RH  087%=      5-min Rain = 0
KHA2 170504Z 11006KT 17/15 A3004 RMK A01 T01660145  RH  087%=      5-min Rain = 0
KHA2 170505Z 10006KT 17/15 A3004 RMK A01 T01660146  RH  088%=      5-min Rain = 0
KHA2 170506Z 10007KT 17/15 A3004 RMK A01 T01660147  RH  088%=      5-min Rain = 0
KHA2 170507Z 10006KT 17/15 A3004 RMK A01 T01660148  RH  089%=      5-min Rain = 0
KHA2 170508Z 10006KT 17/15 A3004 RMK A01 T01670149  RH  089%=      5-min Rain = 0
KHA2 170509Z 10006KT 17/15 A3004 RMK A01 T01670150  RH  089%=      5-min Rain = 0
KHA2 170510Z 10007KT 17/15 A3004 RMK A01 T01680150  RH  089%=      5-min Rain = 0
KHA2 170511Z 10007KT 17/15 A3004 RMK A01 T01690150  RH  089%=      5-min Rain = 0
KHA2 170512Z 10007KT 17/15 A3004 RMK A01 T01690151  RH  089%=      5-min Rain = 0
KHA2 170513Z 10007KT 17/15 A3004 RMK A01 T01700151  RH  089%=      5-min Rain = 0
KHA2 170514Z 10007KT 17/15 A3004 RMK A01 T01700151  RH  088%=      5-min Rain = 0
KHA2 170515Z 10007KT 17/15 A3004 RMK A01 T01710151  RH  088%=      5-min Rain = 0
KHA2 170516Z 09006KT 17/15 A3004 RMK A01 T01710151  RH  088%=      5-min Rain = 0
KHA2 170517Z 08005KT 17/15 A3004 RMK A01 T01710151  RH  088%=      5-min Rain = 0
KHA2 170518Z 08005KT 17/15 A3004 RMK A01 T01700149  RH  088%=      5-min Rain = 0
KHA2 170519Z 08005KT 17/15 A3004 RMK A01 T01680148  RH  088%=      5-min Rain = 0
KHA2 170520Z 08005KT 17/15 A3004 RMK A01 T01670147  RH  088%=      5-min Rain = 0
KHA2 170521Z 09004KT 17/15 A3004 RMK A01 T01660146  RH  088%=      5-min Rain = 0
KHA2 170522Z 08004KT 17/14 A3004 RMK A01 T01650144  RH  087%=      5-min Rain = 0
KHA2 170523Z 09005KT 16/14 A3004 RMK A01 T01640144  RH  088%=      5-min Rain = 0
KHA2 170524Z 09005KT 16/15 A3004 RMK A01 T01640146  RH  089%=      5-min Rain = 0
KHA2 170525Z 09005KT 16/15 A3004 RMK A01 T01640147  RH  090%=      5-min Rain = 0
KHA2 170526Z 09005KT 17/15 A3004 RMK A01 T01650148  RH  090%=      5-min Rain = 0
KHA2 170527Z 10005KT 17/15 A3004 RMK A01 T01660149  RH  090%=      5-min Rain = 0
KHA2 170528Z 10005KT 17/15 A3004 RMK A01 T01660149  RH  089%=      5-min Rain = 0
KHA2 170529Z 10005KT 17/15 A3004 RMK A01 T01670150  RH  089%=      5-min Rain = 0
KHA2 170530Z 10005KT 17/15 A3004 RMK A01 T01680150  RH  089%=      5-min Rain = 0
KHA2 170531Z 09004KT 17/15 A3004 RMK A01 T01680150  RH  089%=      5-min Rain = 0
KHA2 170532Z 09004KT 17/15 A3004 RMK A01 T01680149  RH  089%=      5-min Rain = 0
KHA2 170533Z 10004KT 17/15 A3004 RMK A01 T01680148  RH  088%=      5-min Rain = 0
KHA2 170534Z 09004KT 17/15 A3004 RMK A01 T01670147  RH  088%=      5-min Rain = 0
KHA2 170535Z 10003KT 17/15 A3004 RMK A01 T01660147  RH  088%=      5-min Rain = 0
KHA2 170536Z 10003KT 17/15 A3004 RMK A01 T01650146  RH  088%=      5-min Rain = 0
KHA2 170537Z 11003KT 17/15 A3004 RMK A01 T01650146  RH  089%=      5-min Rain = 0
KHA2 170538Z 11003KT 16/15 A3004 RMK A01 T01640146  RH  089%=      5-min Rain = 0
KHA2 170539Z 11003KT 16/15 A3004 RMK A01 T01640147  RH  089%=      5-min Rain = 0
KHA2 170540Z 10003KT 16/15 A3004 RMK A01 T01630145  RH  089%=      5-min Rain = 0
KHA2 170541Z 10003KT 16/15 A3004 RMK A01 T01630146  RH  090%=      5-min Rain = 0
KHA2 170542Z 10004KT 16/15 A3003 RMK A01 T01630147  RH  090%=      5-min Rain = 0
KHA2 170543Z 10004KT 16/15 A3003 RMK A01 T01640148  RH  091%=      5-min Rain = 0
KHA2 170544Z 10004KT 16/15 A3003 RMK A01 T01640148  RH  091%=      5-min Rain = 0
KHA2 170545Z 10004KT 16/15 A3003 RMK A01 T01640148  RH  090%=      5-min Rain = 0
KHA2 170546Z 10004KT 17/15 A3003 RMK A01 T01650148  RH  090%=      5-min Rain = 0
KHA2 170547Z 10004KT 16/15 A3003 RMK A01 T01640148  RH  090%=      5-min Rain = 0
KHA2 170548Z 10004KT 17/15 A3003 RMK A01 T01650149  RH  090%=      5-min Rain = 0
KHA2 170549Z 10004KT 17/15 A3003 RMK A01 T01650149  RH  090%=      5-min Rain = 0
KHA2 170550Z 10004KT 17/15 A3003 RMK A01 T01650149  RH  090%=      5-min Rain = 0
KHA2 170551Z 10004KT 17/15 A3003 RMK A01 T01650149  RH  090%=      5-min Rain = 0
KHA2 170552Z 10004KT 17/15 A3003 RMK A01 T01660149  RH  090%=      5-min Rain = 0
KHA2 170553Z 10003KT 17/15 A3003 RMK A01 T01660150  RH  090%=      5-min Rain = 0
KHA2 170554Z 10003KT 17/15 A3004 RMK A01 T01660150  RH  090%=      5-min Rain = 0
KHA2 170555Z 10003KT 17/15 A3004 RMK A01 T01660150  RH  090%=      5-min Rain = 0
KHA2 170556Z 11002KT 17/15 A3004 RMK A01 T01660150  RH  090%=      5-min Rain = 0
KHA2 170557Z 11003KT 17/15 A3004 RMK A01 T01660149  RH  090%=      5-min Rain = 0
KHA2 170558Z 11002KT 17/15 A3004 RMK A01 T01650146  RH  089%=      5-min Rain = 0
KHA2 170559Z 11003KT 16/14 A3004 RMK A01 T01630144  RH  088%=      5-min Rain = 0
KHA2 170600Z 11003KT 16/14 A3004 RMK A01 T01620143  RH  088%=      5-min Rain = 0
KHA2 170601Z 11003KT 16/14 A3003 RMK A01 T01620143  RH  088%=      5-min Rain = 0
KHA2 170602Z 11004KT 16/14 A3003 RMK A01 T01610142  RH  089%=      5-min Rain = 0
KHA2 170603Z 11004KT 16/14 A3003 RMK A01 T01610142  RH  089%=      5-min Rain = 0
KHA2 170604Z 10004KT 16/14 A3003 RMK A01 T01610143  RH  089%=      5-min Rain = 0
KHA2 170605Z 10004KT 16/14 A3003 RMK A01 T01600143  RH  090%=      5-min Rain = 0
KHA2 170606Z 09004KT 16/14 A3003 RMK A01 T01600144  RH  090%=      5-min Rain = 0
KHA2 170607Z 09004KT 16/15 A3003 RMK A01 T01600145  RH  091%=      5-min Rain = 0
KHA2 170608Z 09004KT 16/15 A3003 RMK A01 T01610147  RH  091%=      5-min Rain = 0
KHA2 170609Z 09004KT 16/15 A3003 RMK A01 T01610147  RH  091%=      5-min Rain = 0
KHA2 170610Z 09004KT 16/15 A3003 RMK A01 T01610147  RH  091%=      5-min Rain = 0
KHA2 170611Z 09004KT 16/15 A3003 RMK A01 T01600145  RH  090%=      5-min Rain = 0
KHA2 170612Z 09003KT 16/14 A3003 RMK A01 T01590143  RH  090%=      5-min Rain = 0
KHA2 170613Z 10003KT 16/14 A3003 RMK A01 T01590142  RH  090%=      5-min Rain = 0
KHA2 170614Z 10002KT 16/14 A3003 RMK A01 T01580142  RH  090%=      5-min Rain = 0
KHA2 170615Z 10002KT 16/14 A3003 RMK A01 T01580141  RH  090%=      5-min Rain = 0
KHA2 170616Z 11002KT 16/14 A3003 RMK A01 T01570141  RH  090%=      5-min Rain = 0
KHA2 170617Z 11001KT 16/14 A3004 RMK A01 T01560137  RH  088%=      5-min Rain = 0
KHA2 170618Z 11002KT 16/14 A3004 RMK A01 T01560137  RH  088%=      5-min Rain = 0
KHA2 170619Z 12001KT 15/13 A3004 RMK A01 T01540131  RH  086%=      5-min Rain = 0
KHA2 170620Z 14000KT 15/13 A3004 RMK A01 T01530132  RH  087%=      5-min Rain = 0
KHA2 170621Z 00000KT 15/13 A3004 RMK A01 T01520133  RH  088%=      5-min Rain = 0
KHA2 170622Z 00000KT 15/13 A3004 RMK A01 T01510132  RH  088%=      5-min Rain = 0
KHA2 170623Z 00000KT 15/13 A3004 RMK A01 T01510134  RH  089%=      5-min Rain = 0
KHA2 170624Z 00000KT 15/14 A3004 RMK A01 T01520139  RH  092%=      5-min Rain = 0
KHA2 170625Z 00000KT 15/14 A3004 RMK A01 T01530141  RH  092%=      5-min Rain = 0
KHA2 170626Z 03000KT 15/14 A3004 RMK A01 T01540141  RH  092%=      5-min Rain = 0
KHA2 170627Z 01000KT 15/14 A3004 RMK A01 T01540139  RH  091%=      5-min Rain = 0
KHA2 170628Z 01000KT 15/14 A3004 RMK A01 T01540138  RH  090%=      5-min Rain = 0
KHA2 170629Z 00000KT 16/14 A3004 RMK A01 T01550139  RH  090%=      5-min Rain = 0
KHA2 170630Z 07000KT 16/14 A3004 RMK A01 T01560140  RH  090%=      5-min Rain = 0
KHA2 170631Z 07001KT 16/14 A3004 RMK A01 T01560141  RH  091%=      5-min Rain = 0
KHA2 170632Z 07001KT 16/14 A3004 RMK A01 T01560142  RH  091%=      5-min Rain = 0
KHA2 170633Z 09002KT 16/14 A3004 RMK A01 T01560141  RH  091%=      5-min Rain = 0
KHA2 170634Z 10001KT 16/14 A3004 RMK A01 T01570143  RH  092%=      5-min Rain = 0
KHA2 170635Z 09001KT 16/14 A3004 RMK A01 T01570144  RH  092%=      5-min Rain = 0
KHA2 170636Z 09001KT 16/14 A3004 RMK A01 T01570143  RH  091%=      5-min Rain = 0
KHA2 170637Z 12001KT 16/14 A3004 RMK A01 T01570141  RH  090%=      5-min Rain = 0
KHA2 170638Z 14001KT 16/14 A3004 RMK A01 T01560139  RH  090%=      5-min Rain = 0
KHA2 170639Z 12001KT 16/14 A3004 RMK A01 T01560140  RH  091%=      5-min Rain = 0
KHA2 170640Z 12002KT 16/14 A3004 RMK A01 T01550140  RH  090%=      5-min Rain = 0
KHA2 170641Z 12002KT 16/14 A3004 RMK A01 T01550140  RH  091%=      5-min Rain = 0
KHA2 170642Z 12003KT 16/14 A3004 RMK A01 T01550142  RH  092%=      5-min Rain = 0
KHA2 170643Z 12003KT 16/14 A3004 RMK A01 T01560144  RH  092%=      5-min Rain = 0
KHA2 170644Z 12003KT 16/15 A3004 RMK A01 T01570145  RH  093%=      5-min Rain = 0
KHA2 170645Z 12003KT 16/15 A3004 RMK A01 T01570145  RH  093%=      5-min Rain = 0
KHA2 170646Z 11003KT 16/15 A3004 RMK A01 T01570145  RH  092%=      5-min Rain = 0
KHA2 170647Z 11003KT 16/15 A3004 RMK A01 T01570145  RH  093%=      5-min Rain = 0
KHA2 170648Z 11003KT 16/15 A3004 RMK A01 T01570146  RH  093%=      5-min Rain = 0
KHA2 170649Z 11003KT 16/15 A3004 RMK A01 T01570146  RH  093%=      5-min Rain = 0
KHA2 170650Z 11002KT 16/15 A3004 RMK A01 T01580146  RH  093%=      5-min Rain = 0
KHA2 170651Z 12002KT 16/15 A3004 RMK A01 T01580146  RH  093%=      5-min Rain = 0
KHA2 170652Z 13002KT 16/15 A3004 RMK A01 T01570145  RH  093%=      5-min Rain = 0
KHA2 170653Z 13002KT 16/14 A3004 RMK A01 T01560144  RH  092%=      5-min Rain = 0
KHA2 170654Z 13002KT 16/14 A3004 RMK A01 T01550142  RH  092%=      5-min Rain = 0
KHA2 170655Z 13002KT 16/14 A3004 RMK A01 T01550143  RH  092%=      5-min Rain = 0
KHA2 170656Z 14002KT 15/14 A3004 RMK A01 T01540142  RH  092%=      5-min Rain = 0
KHA2 170657Z 14002KT 15/14 A3004 RMK A01 T01540142  RH  092%=      5-min Rain = 0
KHA2 170658Z 13003KT 15/14 A3004 RMK A01 T01540143  RH  093%=      5-min Rain = 0
KHA2 170659Z 12003KT 15/14 A3004 RMK A01 T01540144  RH  093%=      5-min Rain = 0
KHA2 170700Z 11003KT 15/14 A3004 RMK A01 T01540144  RH  094%=      5-min Rain = 0
KHA2 170701Z 11003KT 15/15 A3004 RMK A01 T01540145  RH  094%=      5-min Rain = 0
KHA2 170702Z 10004KT 15/14 A3004 RMK A01 T01540144  RH  094%=      5-min Rain = 0
KHA2 170703Z 11004KT 15/14 A3004 RMK A01 T01540144  RH  094%=      5-min Rain = 0
KHA2 170704Z 11004KT 15/14 A3004 RMK A01 T01540144  RH  094%=      5-min Rain = 0
KHA2 170705Z 11004KT 16/15 A3004 RMK A01 T01550146  RH  094%=      5-min Rain = 0
KHA2 170706Z 12003KT 16/15 A3004 RMK A01 T01550146  RH  094%=      5-min Rain = 0
KHA2 170707Z 12003KT 16/15 A3004 RMK A01 T01550146  RH  094%=      5-min Rain = 0
KHA2 170708Z 13003KT 16/15 A3004 RMK A01 T01550145  RH  094%=      5-min Rain = 0
KHA2 170709Z 12003KT 16/15 A3004 RMK A01 T01550145  RH  094%=      5-min Rain = 0
KHA2 170710Z 12002KT 15/14 A3004 RMK A01 T01540144  RH  094%=      5-min Rain = 0
KHA2 170711Z 12002KT 15/14 A3004 RMK A01 T01540143  RH  093%=      5-min Rain = 0
KHA2 170712Z 11002KT 15/14 A3004 RMK A01 T01530141  RH  093%=      5-min Rain = 0
KHA2 170713Z 11002KT 15/14 A3004 RMK A01 T01520140  RH  093%=      5-min Rain = 0
KHA2 170714Z 10002KT 15/14 A3004 RMK A01 T01520140  RH  093%=      5-min Rain = 0
KHA2 170715Z 10002KT 15/14 A3004 RMK A01 T01510140  RH  093%=      5-min Rain = 0
KHA2 170716Z 10002KT 15/14 A3004 RMK A01 T01510141  RH  093%=      5-min Rain = 0
KHA2 170717Z 11002KT 15/14 A3004 RMK A01 T01510141  RH  094%=      5-min Rain = 0
KHA2 170718Z 10002KT 15/14 A3004 RMK A01 T01510142  RH  094%=      5-min Rain = 0
KHA2 170719Z 10002KT 15/14 A3004 RMK A01 T01510143  RH  095%=      5-min Rain = 0
KHA2 170720Z 10001KT 15/14 A3004 RMK A01 T01520144  RH  095%=      5-min Rain = 0
KHA2 170721Z 10001KT 15/14 A3004 RMK A01 T01510144  RH  095%=      5-min Rain = 0
KHA2 170722Z 10001KT 15/14 A3003 RMK A01 T01510144  RH  095%=      5-min Rain = 0
KHA2 170723Z 10001KT 15/15 A3003 RMK A01 T01520145  RH  096%=      5-min Rain = 0
KHA2 170724Z 09000KT 15/15 A3003 RMK A01 T01520145  RH  096%=      5-min Rain = 0
KHA2 170725Z 06000KT 15/15 A3003 RMK A01 T01530146  RH  096%=      5-min Rain = 0
KHA2 170726Z 10001KT 15/15 A3003 RMK A01 T01530147  RH  096%=      5-min Rain = 0
KHA2 170727Z 10000KT 15/15 A3003 RMK A01 T01540147  RH  096%=      5-min Rain = 0
KHA2 170728Z 11000KT 15/15 A3003 RMK A01 T01540148  RH  096%=      5-min Rain = 0
KHA2 170729Z 00000KT 15/15 A3003 RMK A01 T01540148  RH  096%=      5-min Rain = 0
KHA2 170730Z 00000KT 15/15 A3003 RMK A01 T01540148  RH  096%=      5-min Rain = 0
KHA2 170731Z 00000KT 16/15 A3003 RMK A01 T01550148  RH  096%=      5-min Rain = 0
KHA2 170732Z 00000KT 16/15 A3003 RMK A01 T01550148  RH  096%=      5-min Rain = 0
KHA2 170733Z 00000KT 16/15 A3003 RMK A01 T01550148  RH  096%=      5-min Rain = 0
KHA2 170734Z 00000KT 16/15 A3003 RMK A01 T01550149  RH  096%=      5-min Rain = 0
KHA2 170735Z 00000KT 16/15 A3003 RMK A01 T01550149  RH  096%=      5-min Rain = 0
KHA2 170736Z 00000KT 16/15 A3003 RMK A01 T01560149  RH  096%=      5-min Rain = 0
KHA2 170737Z 07000KT 16/15 A3003 RMK A01 T01560149  RH  096%=      5-min Rain = 0
KHA2 170738Z 00000KT 16/15 A3003 RMK A01 T01560149  RH  096%=      5-min Rain = 0
KHA2 170739Z 07000KT 16/15 A3003 RMK A01 T01560149  RH  096%=      5-min Rain = 0
KHA2 170740Z 05000KT 16/15 A3003 RMK A01 T01560149  RH  096%=      5-min Rain = 0
KHA2 170741Z 03000KT 16/15 A3003 RMK A01 T01560149  RH  096%=      5-min Rain = 0
KHA2 170742Z 03000KT 16/15 A3003 RMK A01 T01550148  RH  096%=      5-min Rain = 0
KHA2 170743Z 05000KT 16/15 A3003 RMK A01 T01550147  RH  095%=      5-min Rain = 0
KHA2 170744Z 06000KT 15/15 A3003 RMK A01 T01540147  RH  096%=      5-min Rain = 0
KHA2 170745Z 07000KT 15/15 A3003 RMK A01 T01540148  RH  096%=      5-min Rain = 0
KHA2 170746Z 07001KT 15/15 A3003 RMK A01 T01540148  RH  096%=      5-min Rain = 0
KHA2 170747Z 07001KT 15/15 A3003 RMK A01 T01540148  RH  096%=      5-min Rain = 0
KHA2 170748Z 07001KT 15/15 A3003 RMK A01 T01540148  RH  096%=      5-min Rain = 0
KHA2 170749Z 06001KT 15/15 A3003 RMK A01 T01540148  RH  096%=      5-min Rain = 0
KHA2 170750Z 06001KT 15/15 A3003 RMK A01 T01540148  RH  096%=      5-min Rain = 0
KHA2 170751Z 06002KT 15/15 A3003 RMK A01 T01540148  RH  097%=      5-min Rain = 0
KHA2 170752Z 05002KT 15/15 A3003 RMK A01 T01540149  RH  097%=      5-min Rain = 0
KHA2 170753Z 05002KT 15/15 A3003 RMK A01 T01540149  RH  097%=      5-min Rain = 0
KHA2 170754Z 05002KT 15/15 A3003 RMK A01 T01540149  RH  097%=      5-min Rain = 0
KHA2 170755Z 04002KT 15/15 A3003 RMK A01 T01540149  RH  097%=      5-min Rain = 0
KHA2 170756Z 04002KT 15/15 A3003 RMK A01 T01540148  RH  097%=      5-min Rain = 0
KHA2 170757Z 04002KT 15/15 A3003 RMK A01 T01510145  RH  096%=      5-min Rain = 0
KHA2 170758Z 04002KT 15/14 A3003 RMK A01 T01490142  RH  096%=      5-min Rain = 0
KHA2 170759Z 05002KT 15/14 A3002 RMK A01 T01490143  RH  096%=      5-min Rain = 0
KHA2 170800Z 06002KT 15/14 A3002 RMK A01 T01480142  RH  096%=      5-min Rain = 0
KHA2 170801Z 06002KT 15/14 A3002 RMK A01 T01480141  RH  096%=      5-min Rain = 0
KHA2 170802Z 05003KT 15/14 A3002 RMK A01 T01480141  RH  096%=      5-min Rain = 0
KHA2 170803Z 05003KT 15/14 A3002 RMK A01 T01480141  RH  096%=      5-min Rain = 0
KHA2 170804Z 05003KT 15/14 A3002 RMK A01 T01480142  RH  096%=      5-min Rain = 0
KHA2 170805Z 05003KT 15/14 A3002 RMK A01 T01490142  RH  096%=      5-min Rain = 0
KHA2 170806Z 05003KT 15/14 A3002 RMK A01 T01490143  RH  096%=      5-min Rain = 0
KHA2 170807Z 05003KT 15/14 A3003 RMK A01 T01490143  RH  096%=      5-min Rain = 0
KHA2 170808Z 05003KT 15/14 A3003 RMK A01 T01490143  RH  096%=      5-min Rain = 0
KHA2 170809Z 04003KT 15/14 A3003 RMK A01 T01480141  RH  096%=      5-min Rain = 0
KHA2 170810Z 04003KT 15/14 A3003 RMK A01 T01450136  RH  094%=      5-min Rain = 0
KHA2 170811Z 04002KT 14/13 A3003 RMK A01 T01440133  RH  093%=      5-min Rain = 0
KHA2 170812Z 04003KT 14/13 A3003 RMK A01 T01420130  RH  092%=      5-min Rain = 0
KHA2 170813Z 04003KT 14/13 A3003 RMK A01 T01420128  RH  092%=      5-min Rain = 0
KHA2 170814Z 04003KT 14/13 A3003 RMK A01 T01420129  RH  092%=      5-min Rain = 0
KHA2 170815Z 04003KT 14/13 A3003 RMK A01 T01420130  RH  092%=      5-min Rain = 0
KHA2 170816Z 05003KT 14/14 A3003 RMK A01 T01440135  RH  094%=      5-min Rain = 0
KHA2 170817Z 05003KT 15/14 A3003 RMK A01 T01450137  RH  095%=      5-min Rain = 0
KHA2 170818Z 05003KT 15/14 A3003 RMK A01 T01450137  RH  095%=      5-min Rain = 0
KHA2 170819Z 06003KT 15/14 A3003 RMK A01 T01450137  RH  095%=      5-min Rain = 0
KHA2 170820Z 06003KT 15/14 A3003 RMK A01 T01450137  RH  095%=      5-min Rain = 0
KHA2 170821Z 06003KT 15/14 A3003 RMK A01 T01450138  RH  095%=      5-min Rain = 0
KHA2 170822Z 07004KT 15/14 A3003 RMK A01 T01450138  RH  095%=      5-min Rain = 0
KHA2 170823Z 07004KT 15/14 A3003 RMK A01 T01460140  RH  096%=      5-min Rain = 0
KHA2 170824Z 07004KT 15/14 A3003 RMK A01 T01470141  RH  096%=      5-min Rain = 0
KHA2 170825Z 07003KT 15/14 A3003 RMK A01 T01480142  RH  097%=      5-min Rain = 0
KHA2 170826Z 08003KT 15/14 A3003 RMK A01 T01480143  RH  097%=      5-min Rain = 0
KHA2 170827Z 08003KT 15/14 A3003 RMK A01 T01480143  RH  097%=      5-min Rain = 0
KHA2 170828Z 08002KT 15/14 A3002 RMK A01 T01480144  RH  097%=      5-min Rain = 0
KHA2 170829Z 08002KT 15/15 A3002 RMK A01 T01490145  RH  097%=      5-min Rain = 0
KHA2 170830Z 09002KT 15/15 A3002 RMK A01 T01490145  RH  098%=      5-min Rain = 0
KHA2 170831Z 10001KT 15/15 A3002 RMK A01 T01490146  RH  098%=      5-min Rain = 0
KHA2 170832Z 11002KT 15/15 A3002 RMK A01 T01490146  RH  098%=      5-min Rain = 0
KHA2 170833Z 10002KT 15/15 A3002 RMK A01 T01490146  RH  098%=      5-min Rain = 0
KHA2 170834Z 10002KT 15/15 A3002 RMK A01 T01490146  RH  098%=      5-min Rain = 0
KHA2 170835Z 09002KT 15/15 A3003 RMK A01 T01490145  RH  098%=      5-min Rain = 0
KHA2 170836Z 09003KT 15/14 A3003 RMK A01 T01480144  RH  098%=      5-min Rain = 0
KHA2 170837Z 09003KT 15/14 A3003 RMK A01 T01470144  RH  098%=      5-min Rain = 0
KHA2 170838Z 08004KT 15/15 A3003 RMK A01 T01480145  RH  098%=      5-min Rain = 0
KHA2 170839Z 08004KT 15/15 A3003 RMK A01 T01490146  RH  098%=      5-min Rain = 0
KHA2 170840Z 08004KT 15/15 A3003 RMK A01 T01490146  RH  098%=      5-min Rain = 0
KHA2 170841Z 08005KT 15/15 A3003 RMK A01 T01480145  RH  098%=      5-min Rain = 0
KHA2 170842Z 07005KT 15/15 A3002 RMK A01 T01480145  RH  098%=      5-min Rain = 0
KHA2 170843Z 08005KT 15/14 A3002 RMK A01 T01470144  RH  098%=      5-min Rain = 0
KHA2 170844Z 08005KT 15/14 A3002 RMK A01 T01470144  RH  098%=      5-min Rain = 0
KHA2 170845Z 08005KT 15/14 A3002 RMK A01 T01460143  RH  098%=      5-min Rain = 0
KHA2 170846Z 08005KT 15/14 A3002 RMK A01 T01450142  RH  098%=      5-min Rain = 0
KHA2 170847Z 08005KT 14/14 A3002 RMK A01 T01440141  RH  098%=      5-min Rain = 0
KHA2 170848Z 08005KT 14/14 A3002 RMK A01 T01440141  RH  098%=      5-min Rain = 0
KHA2 170849Z 08005KT 14/14 A3002 RMK A01 T01440141  RH  098%=      5-min Rain = 0
KHA2 170850Z 08004KT 14/14 A3002 RMK A01 T01430141  RH  098%=      5-min Rain = 0
KHA2 170851Z 08004KT 14/14 A3002 RMK A01 T01430141  RH  098%=      5-min Rain = 0
KHA2 170852Z 07004KT 14/14 A3002 RMK A01 T01440141  RH  098%=      5-min Rain = 0
KHA2 170853Z 08003KT 14/14 A3002 RMK A01 T01430141  RH  098%=      5-min Rain = 0
KHA2 170854Z 07003KT 14/14 A3003 RMK A01 T01430141  RH  098%=      5-min Rain = 0
KHA2 170855Z 07003KT 14/14 A3003 RMK A01 T01420140  RH  098%=      5-min Rain = 0
KHA2 170856Z 07003KT 14/14 A3003 RMK A01 T01400137  RH  098%=      5-min Rain = 0
KHA2 170857Z 07002KT 14/13 A3003 RMK A01 T01360133  RH  098%=      5-min Rain = 0
KHA2 170858Z 06001KT 13/13 A3003 RMK A01 T01330129  RH  097%=      5-min Rain = 0
KHA2 170859Z 03000KT 13/13 A3003 RMK A01 T01320129  RH  098%=      5-min Rain = 0
KHA2 170900Z 00000KT 13/13 A3003 RMK A01 T01330129  RH  098%=      5-min Rain = 0
KHA2 170901Z 35000KT 13/13 A3003 RMK A01 T01330130  RH  098%=      5-min Rain = 0
KHA2 170902Z 00001KT 13/13 A3003 RMK A01 T01340131  RH  098%=      5-min Rain = 0
KHA2 170903Z 00000KT 14/13 A3003 RMK A01 T01350132  RH  098%=      5-min Rain = 0
KHA2 170904Z 33000KT 14/13 A3003 RMK A01 T01360133  RH  098%=      5-min Rain = 0
KHA2 170905Z 00000KT 14/13 A3003 RMK A01 T01360133  RH  098%=      5-min Rain = 0
KHA2 170906Z 00000KT 14/13 A3003 RMK A01 T01370134  RH  098%=      5-min Rain = 0
KHA2 170907Z 00000KT 14/14 A3003 RMK A01 T01370135  RH  098%=      5-min Rain = 0
KHA2 170908Z 00000KT 14/14 A3003 RMK A01 T01370135  RH  098%=      5-min Rain = 0
KHA2 170909Z 00000KT 14/14 A3003 RMK A01 T01380136  RH  098%=      5-min Rain = 0
KHA2 170910Z 00000KT 14/14 A3003 RMK A01 T01390137  RH  099%=      5-min Rain = 0
KHA2 170911Z 19000KT 14/14 A3003 RMK A01 T01390137  RH  099%=      5-min Rain = 0
KHA2 170912Z 21001KT 14/14 A3003 RMK A01 T01390137  RH  098%=      5-min Rain = 0
KHA2 170913Z 22002KT 14/14 A3003 RMK A01 T01380135  RH  098%=      5-min Rain = 0
KHA2 170914Z 22002KT 14/14 A3003 RMK A01 T01370135  RH  098%=      5-min Rain = 0
KHA2 170915Z 22002KT 14/14 A3003 RMK A01 T01400139  RH  099%=      5-min Rain = 0
KHA2 170916Z 22001KT 14/14 A3003 RMK A01 T01420140  RH  099%=      5-min Rain = 0
KHA2 170917Z 22000KT 14/14 A3003 RMK A01 T01430141  RH  099%=      5-min Rain = 0
KHA2 170918Z 00000KT 14/14 A3003 RMK A01 T01440142  RH  099%=      5-min Rain = 0
KHA2 170919Z 00000KT 14/14 A3003 RMK A01 T01440143  RH  099%=      5-min Rain = 0
KHA2 170920Z 00000KT 14/14 A3003 RMK A01 T01440142  RH  099%=      5-min Rain = 0
KHA2 170921Z 06000KT 14/14 A3003 RMK A01 T01430141  RH  099%=      5-min Rain = 0
KHA2 170922Z 06000KT 15/14 A3003 RMK A01 T01450143  RH  099%=      5-min Rain = 0
KHA2 170923Z 06001KT 15/15 A3003 RMK A01 T01460145  RH  099%=      5-min Rain = 0
KHA2 170924Z 04001KT 15/15 A3003 RMK A01 T01460145  RH  099%=      5-min Rain = 0
KHA2 170925Z 05001KT 15/15 A3003 RMK A01 T01460145  RH  099%=      5-min Rain = 0
KHA2 170926Z 05001KT 15/14 A3003 RMK A01 T01460144  RH  099%=      5-min Rain = 0
KHA2 170927Z 05001KT 15/14 A3003 RMK A01 T01460144  RH  099%=      5-min Rain = 0
KHA2 170928Z 07001KT 15/14 A3003 RMK A01 T01450144  RH  099%=      5-min Rain = 0
KHA2 170929Z 07001KT 15/14 A3003 RMK A01 T01450143  RH  099%=      5-min Rain = 0
KHA2 170930Z 07001KT 14/14 A3003 RMK A01 T01440143  RH  099%=      5-min Rain = 0
KHA2 170931Z 07001KT 14/14 A3003 RMK A01 T01430142  RH  099%=      5-min Rain = 0
KHA2 170932Z 07001KT 14/14 A3002 RMK A01 T01410139  RH  099%=      5-min Rain = 0
KHA2 170933Z 06001KT 14/14 A3002 RMK A01 T01380136  RH  099%=      5-min Rain = 0
KHA2 170934Z 06002KT 14/14 A3002 RMK A01 T01390137  RH  099%=      5-min Rain = 0
KHA2 170935Z 06002KT 14/14 A3002 RMK A01 T01400139  RH  099%=      5-min Rain = 0
KHA2 170936Z 07002KT 14/14 A3002 RMK A01 T01420141  RH  099%=      5-min Rain = 0
KHA2 170937Z 07003KT 14/14 A3002 RMK A01 T01420141  RH  099%=      5-min Rain = 0
KHA2 170938Z 07003KT 14/14 A3002 RMK A01 T01420141  RH  099%=      5-min Rain = 0
KHA2 170939Z 08004KT 14/14 A3002 RMK A01 T01430141  RH  099%=      5-min Rain = 0
KHA2 170940Z 08004KT 14/14 A3002 RMK A01 T01420141  RH  099%=      5-min Rain = 0
KHA2 170941Z 08004KT 14/14 A3002 RMK A01 T01420141  RH  099%=      5-min Rain = 0
KHA2 170942Z 08005KT 14/14 A3002 RMK A01 T01420141  RH  099%=      5-min Rain = 0
KHA2 170943Z 07004KT 14/14 A3002 RMK A01 T01410140  RH  099%=      5-min Rain = 0
KHA2 170944Z 07005KT 14/14 A3002 RMK A01 T01400138  RH  099%=      5-min Rain = 0
KHA2 170945Z 07005KT 14/14 A3002 RMK A01 T01380137  RH  099%=      5-min Rain = 0
KHA2 170946Z 07005KT 14/14 A3002 RMK A01 T01370135  RH  099%=      5-min Rain = 0
KHA2 170947Z 07006KT 14/14 A3002 RMK A01 T01360135  RH  099%=      5-min Rain = 0
KHA2 170948Z 07006KT 14/14 A3002 RMK A01 T01360135  RH  099%=      5-min Rain = 0
KHA2 170949Z 07006KT 14/14 A3002 RMK A01 T01370136  RH  099%=      5-min Rain = 0
KHA2 170950Z 07006KT 14/14 A3002 RMK A01 T01360135  RH  099%=      5-min Rain = 0
KHA2 170951Z 06006KT 14/14 A3002 RMK A01 T01360135  RH  099%=      5-min Rain = 0
KHA2 170952Z 06006KT 14/13 A3002 RMK A01 T01360134  RH  099%=      5-min Rain = 0
KHA2 170953Z 06006KT 14/13 A3002 RMK A01 T01350134  RH  099%=      5-min Rain = 0
KHA2 170954Z 06006KT 14/13 A3003 RMK A01 T01350134  RH  099%=      5-min Rain = 0
KHA2 170955Z 06005KT 14/13 A3003 RMK A01 T01350134  RH  099%=      5-min Rain = 0
KHA2 170956Z 06005KT 14/13 A3003 RMK A01 T01350134  RH  099%=      5-min Rain = 0
KHA2 170957Z 05005KT 14/13 A3003 RMK A01 T01350134  RH  099%=      5-min Rain = 0
KHA2 170958Z 06004KT 14/13 A3003 RMK A01 T01350134  RH  099%=      5-min Rain = 0
KHA2 170959Z 05004KT 13/13 A3003 RMK A01 T01330132  RH  099%=      5-min Rain = 0
KHA2 171000Z 05003KT 13/13 A3003 RMK A01 T01320131  RH  099%=      5-min Rain = 0
KHA2 171001Z 05003KT 13/13 A3003 RMK A01 T01310129  RH  099%=      5-min Rain = 0
KHA2 171002Z 05003KT 13/13 A3003 RMK A01 T01300129  RH  099%=      5-min Rain = 0
KHA2 171003Z 04002KT 13/13 A3003 RMK A01 T01290128  RH  099%=      5-min Rain = 0
KHA2 171004Z 04002KT 13/13 A3003 RMK A01 T01290128  RH  099%=      5-min Rain = 0
KHA2 171005Z 04002KT 13/13 A3003 RMK A01 T01290128  RH  099%=      5-min Rain = 0
KHA2 171006Z 04003KT 13/13 A3003 RMK A01 T01290128  RH  099%=      5-min Rain = 0
KHA2 171007Z 04003KT 13/13 A3003 RMK A01 T01300129  RH  099%=      5-min Rain = 0
KHA2 171008Z 04003KT 13/13 A3003 RMK A01 T01300130  RH  099%=      5-min Rain = 0
KHA2 171009Z 04004KT 13/13 A3003 RMK A01 T01310130  RH  099%=      5-min Rain = 0
KHA2 171010Z 05003KT 13/13 A3003 RMK A01 T01300129  RH  099%=      5-min Rain = 0
KHA2 171011Z 05003KT 13/13 A3003 RMK A01 T01300129  RH  099%=      5-min Rain = 0
KHA2 171012Z 05003KT 13/13 A3003 RMK A01 T01290128  RH  099%=      5-min Rain = 0
KHA2 171013Z 05003KT 13/13 A3004 RMK A01 T01290128  RH  099%=      5-min Rain = 0
KHA2 171014Z 06002KT 13/13 A3004 RMK A01 T01290128  RH  100%=      5-min Rain = 0
KHA2 171015Z 06002KT 13/13 A3004 RMK A01 T01300129  RH  100%=      5-min Rain = 0
KHA2 171016Z 07002KT 13/13 A3004 RMK A01 T01300129  RH  100%=      5-min Rain = 0
KHA2 171017Z 07002KT 13/13 A3004 RMK A01 T01300129  RH  100%=      5-min Rain = 0
KHA2 171018Z 07002KT 13/13 A3004 RMK A01 T01300129  RH  100%=      5-min Rain = 0
KHA2 171019Z 06003KT 13/13 A3004 RMK A01 T01310130  RH  100%=      5-min Rain = 0
KHA2 171020Z 06003KT 13/13 A3004 RMK A01 T01310131  RH  100%=      5-min Rain = 0
KHA2 171021Z 06003KT 13/13 A3004 RMK A01 T01310131  RH  100%=      5-min Rain = 0
KHA2 171022Z 06003KT 13/13 A3004 RMK A01 T01330132  RH  100%=      5-min Rain = 0
KHA2 171023Z 06003KT 14/13 A3004 RMK A01 T01350134  RH  100%=      5-min Rain = 0
KHA2 171024Z 06003KT 14/14 A3004 RMK A01 T01360135  RH  100%=      5-min Rain = 0
KHA2 171025Z 06003KT 14/14 A3004 RMK A01 T01360136  RH  100%=      5-min Rain = 0
KHA2 171026Z 07003KT 14/14 A3004 RMK A01 T01360135  RH  100%=      5-min Rain = 0
KHA2 171027Z 08002KT 14/13 A3004 RMK A01 T01350134  RH  100%=      5-min Rain = 0
KHA2 171028Z 09002KT 13/13 A3004 RMK A01 T01330132  RH  100%=      5-min Rain = 0
KHA2 171029Z 09002KT 13/13 A3004 RMK A01 T01320131  RH  100%=      5-min Rain = 0
KHA2 171030Z 09002KT 13/13 A3004 RMK A01 T01320131  RH  100%=      5-min Rain = 0
KHA2 171031Z 09002KT 13/13 A3004 RMK A01 T01320131  RH  100%=      5-min Rain = 0
KHA2 171032Z 08002KT 13/13 A3004 RMK A01 T01340133  RH  100%=      5-min Rain = 0
KHA2 171033Z 07002KT 14/14 A3004 RMK A01 T01360136  RH  100%=      5-min Rain = 0
KHA2 171034Z 06001KT 14/14 A3004 RMK A01 T01370136  RH  100%=      5-min Rain = 0
KHA2 171035Z 06001KT 14/14 A3004 RMK A01 T01360136  RH  100%=      5-min Rain = 0
KHA2 171036Z 00000KT 14/14 A3004 RMK A01 T01360136  RH  100%=      5-min Rain = 0
KHA2 171037Z 00000KT 13/13 A3004 RMK A01 T01340134  RH  100%=      5-min Rain = 0
KHA2 171038Z 30000KT 13/13 A3004 RMK A01 T01320132  RH  099%=      5-min Rain = 0
KHA2 171039Z 30001KT 13/13 A3004 RMK A01 T01310130  RH  100%=      5-min Rain = 0
KHA2 171040Z 30001KT 13/13 A3005 RMK A01 T01290128  RH  099%=      5-min Rain = 0
KHA2 171041Z 30001KT 13/13 A3005 RMK A01 T01280127  RH  100%=      5-min Rain = 0
KHA2 171042Z 30002KT 13/13 A3005 RMK A01 T01290128  RH  100%=      5-min Rain = 0
KHA2 171043Z 28002KT 13/13 A3005 RMK A01 T01310131  RH  100%=      5-min Rain = 0
KHA2 171044Z 28002KT 13/13 A3005 RMK A01 T01320132  RH  100%=      5-min Rain = 0
KHA2 171045Z 28002KT 13/13 A3005 RMK A01 T01330132  RH  100%=      5-min Rain = 0
KHA2 171046Z 28002KT 13/13 A3005 RMK A01 T01330133  RH  100%=      5-min Rain = 0
KHA2 171047Z 28002KT 13/13 A3005 RMK A01 T01320132  RH  100%=      5-min Rain = 0
KHA2 171048Z 27003KT 13/13 A3005 RMK A01 T01320131  RH  100%=      5-min Rain = 0
KHA2 171049Z 27003KT 13/13 A3005 RMK A01 T01320132  RH  100%=      5-min Rain = 0
KHA2 171050Z 26003KT 13/13 A3005 RMK A01 T01330133  RH  100%=      5-min Rain = 0
KHA2 171051Z 26003KT 13/13 A3005 RMK A01 T01340133  RH  100%=      5-min Rain = 0
KHA2 171052Z 25003KT 13/13 A3005 RMK A01 T01340134  RH  100%=      5-min Rain = 0
KHA2 171053Z 24003KT 13/13 A3005 RMK A01 T01340134  RH  100%=      5-min Rain = 0
KHA2 171054Z 24003KT 13/13 A3005 RMK A01 T01340134  RH  100%=      5-min Rain = 0
KHA2 171055Z 25003KT 13/13 A3005 RMK A01 T01340134  RH  100%=      5-min Rain = 0
KHA2 171056Z 24003KT 13/13 A3005 RMK A01 T01340134  RH  100%=      5-min Rain = 0
KHA2 171057Z 24003KT 13/13 A3005 RMK A01 T01340134  RH  100%=      5-min Rain = 0
KHA2 171058Z 25002KT 13/13 A3005 RMK A01 T01340134  RH  100%=      5-min Rain = 0
KHA2 171059Z 25002KT 14/13 A3005 RMK A01 T01350134  RH  100%=      5-min Rain = 0
KHA2 171100Z 24002KT 13/13 A3005 RMK A01 T01340134  RH  100%=      5-min Rain = 0
KHA2 171101Z 24002KT 13/13 A3005 RMK A01 T01340133  RH  100%=      5-min Rain = 0
KHA2 171102Z 24002KT 13/13 A3005 RMK A01 T01330133  RH  100%=      5-min Rain = 0
KHA2 171103Z 24002KT 13/13 A3005 RMK A01 T01330133  RH  100%=      5-min Rain = 0
KHA2 171104Z 23003KT 13/13 A3005 RMK A01 T01330133  RH  100%=      5-min Rain = 0
KHA2 171105Z 23003KT 13/13 A3005 RMK A01 T01320132  RH  100%=      5-min Rain = 0
KHA2 171106Z 23003KT 13/13 A3005 RMK A01 T01310131  RH  100%=      5-min Rain = 0
KHA2 171107Z 23003KT 13/13 A3005 RMK A01 T01300130  RH  100%=      5-min Rain = 0
KHA2 171108Z 22003KT 13/13 A3005 RMK A01 T01300130  RH  100%=      5-min Rain = 0
KHA2 171109Z 23003KT 13/13 A3005 RMK A01 T01300130  RH  100%=      5-min Rain = 0
KHA2 171110Z 23004KT 13/13 A3005 RMK A01 T01290129  RH  100%=      5-min Rain = 0
KHA2 171111Z 23004KT 13/13 A3005 RMK A01 T01290129  RH  100%=      5-min Rain = 0
KHA2 171112Z 23003KT 13/13 A3005 RMK A01 T01290129  RH  100%=      5-min Rain = 0
KHA2 171113Z 23003KT 13/13 A3005 RMK A01 T01290129  RH  100%=      5-min Rain = 0
KHA2 171114Z 23003KT 13/13 A3005 RMK A01 T01290129  RH  100%=      5-min Rain = 0
KHA2 171115Z 23004KT 13/13 A3005 RMK A01 T01290129  RH  100%=      5-min Rain = 0
KHA2 171116Z 24004KT 13/13 A3005 RMK A01 T01290129  RH  100%=      5-min Rain = 0
KHA2 171117Z 24004KT 13/13 A3005 RMK A01 T01290129  RH  100%=      5-min Rain = 0
KHA2 171118Z 24005KT 13/13 A3005 RMK A01 T01280128  RH  100%=      5-min Rain = 0
KHA2 171119Z 24006KT 13/13 A3005 RMK A01 T01280128  RH  100%=      5-min Rain = 0
KHA2 171120Z 25006KT 13/13 A3005 RMK A01 T01280128  RH  100%=      5-min Rain = 0
KHA2 171121Z 25005KT 13/13 A3006 RMK A01 T01290129  RH  100%=      5-min Rain = 0
KHA2 171122Z 25005KT 13/13 A3006 RMK A01 T01290129  RH  100%=      5-min Rain = 0
KHA2 171123Z 25004KT 13/13 A3006 RMK A01 T01300130  RH  100%=      5-min Rain = 0
KHA2 171124Z 24004KT 13/13 A3005 RMK A01 T01310131  RH  100%=      5-min Rain = 0
KHA2 171125Z 24004KT 13/13 A3005 RMK A01 T01310131  RH  100%=      5-min Rain = 0
KHA2 171126Z 24005KT 13/13 A3005 RMK A01 T01310131  RH  100%=      5-min Rain = 0
KHA2 171127Z 24005KT 13/13 A3005 RMK A01 T01300130  RH  100%=      5-min Rain = 0
KHA2 171128Z 24005KT 13/13 A3005 RMK A01 T01300130  RH  100%=      5-min Rain = 0
KHA2 171129Z 24005KT 13/13 A3005 RMK A01 T01300130  RH  100%=      5-min Rain = 0
KHA2 171130Z 23005KT 13/13 A3005 RMK A01 T01310131  RH  100%=      5-min Rain = 0
KHA2 171131Z 23005KT 13/13 A3005 RMK A01 T01300130  RH  100%=      5-min Rain = 0
KHA2 171132Z 23005KT 13/13 A3005 RMK A01 T01310131  RH  100%=      5-min Rain = 0
KHA2 171133Z 23005KT 13/13 A3005 RMK A01 T01300130  RH  100%=      5-min Rain = 0
KHA2 171134Z 23005KT 13/13 A3005 RMK A01 T01300130  RH  100%=      5-min Rain = 0
KHA2 171135Z 23006KT 13/13 A3005 RMK A01 T01300130  RH  100%=      5-min Rain = 0
KHA2 171136Z 23005KT 13/13 A3005 RMK A01 T01300130  RH  100%=      5-min Rain = 0
KHA2 171137Z 23005KT 13/13 A3005 RMK A01 T01310131  RH  100%=      5-min Rain = 0
KHA2 171138Z 24005KT 13/13 A3005 RMK A01 T01310130  RH  100%=      5-min Rain = 0
KHA2 171139Z 24005KT 13/13 A3005 RMK A01 T01300130  RH  100%=      5-min Rain = 0
KHA2 171140Z 24006KT 13/13 A3005 RMK A01 T01300130  RH  100%=      5-min Rain = 0
KHA2 171141Z 24006KT 13/13 A3005 RMK A01 T01300130  RH  100%=      5-min Rain = 0
KHA2 171142Z 24006KT 13/13 A3005 RMK A01 T01300130  RH  100%=      5-min Rain = 0
KHA2 171143Z 24006KT 13/13 A3005 RMK A01 T01310131  RH  100%=      5-min Rain = 0
KHA2 171144Z 24006KT 13/13 A3005 RMK A01 T01310131  RH  100%=      5-min Rain = 0
KHA2 171145Z 24007KT 13/13 A3005 RMK A01 T01310131  RH  100%=      5-min Rain = 0
KHA2 171146Z 24007KT 13/13 A3006 RMK A01 T01300130  RH  100%=      5-min Rain = 0
KHA2 171147Z 24007KT 13/13 A3006 RMK A01 T01300130  RH  100%=      5-min Rain = 0
KHA2 171148Z 25007KT 13/13 A3006 RMK A01 T01300129  RH  100%=      5-min Rain = 0
KHA2 171149Z 25006KT 13/13 A3006 RMK A01 T01300130  RH  100%=      5-min Rain = 0
KHA2 171150Z 25006KT 13/13 A3006 RMK A01 T01290129  RH  100%=      5-min Rain = 0
KHA2 171151Z 25006KT 13/13 A3006 RMK A01 T01290129  RH  100%=      5-min Rain = 0
KHA2 171152Z 24005KT 13/13 A3006 RMK A01 T01290129  RH  100%=      5-min Rain = 0
KHA2 171153Z 24005KT 13/13 A3006 RMK A01 T01290128  RH  100%=      5-min Rain = 0
KHA2 171154Z 24005KT 13/13 A3006 RMK A01 T01280128  RH  100%=      5-min Rain = 0
KHA2 171155Z 24005KT 13/13 A3005 RMK A01 T01280128  RH  100%=      5-min Rain = 0
KHA2 171156Z 24005KT 13/13 A3005 RMK A01 T01280128  RH  100%=      5-min Rain = 0
KHA2 171157Z 24004KT 13/13 A3005 RMK A01 T01280128  RH  100%=      5-min Rain = 0
KHA2 171158Z 23004KT 13/13 A3006 RMK A01 T01280128  RH  100%=      5-min Rain = 0
KHA2 171159Z 23004KT 13/13 A3006 RMK A01 T01280128  RH  100%=      5-min Rain = 0
KHA2 171200Z 23004KT 13/13 A3006 RMK A01 T01280128  RH  100%=      5-min Rain = 0
KHA2 171201Z 24004KT 13/13 A3006 RMK A01 T01280128  RH  100%=      5-min Rain = 0
KHA2 171202Z 24004KT 13/13 A3006 RMK A01 T01280128  RH  100%=      5-min Rain = 0
KHA2 171203Z 24004KT 13/13 A3006 RMK A01 T01280128  RH  100%=      5-min Rain = 0
KHA2 171204Z 24004KT 13/13 A3006 RMK A01 T01290129  RH  100%=      5-min Rain = 0
KHA2 171205Z 24004KT 13/13 A3006 RMK A01 T01290129  RH  100%=      5-min Rain = 0
KHA2 171206Z 24004KT 13/13 A3006 RMK A01 T01290129  RH  100%=      5-min Rain = 0
KHA2 171207Z 24005KT 13/13 A3006 RMK A01 T01300129  RH  100%=      5-min Rain = 0
KHA2 171208Z 25006KT 13/13 A3006 RMK A01 T01300130  RH  100%=      5-min Rain = 0
KHA2 171209Z 25006KT 13/13 A3006 RMK A01 T01300130  RH  100%=      5-min Rain = 0
KHA2 171210Z 25006KT 13/13 A3006 RMK A01 T01310131  RH  100%=      5-min Rain = 0
KHA2 171211Z 25007KT 13/13 A3006 RMK A01 T01320132  RH  100%=      5-min Rain = 0
KHA2 171212Z 25007KT 13/13 A3006 RMK A01 T01320132  RH  100%=      5-min Rain = 0
KHA2 171213Z 25007KT 13/13 A3006 RMK A01 T01330132  RH  100%=      5-min Rain = 0
KHA2 171214Z 25008KT 13/13 A3006 RMK A01 T01330133  RH  100%=      5-min Rain = 0
KHA2 171215Z 25008KT 13/13 A3006 RMK A01 T01330133  RH  100%=      5-min Rain = 0
KHA2 171216Z 25007KT 13/13 A3006 RMK A01 T01330133  RH  100%=      5-min Rain = 0
KHA2 171217Z 25007KT 13/13 A3006 RMK A01 T01330133  RH  100%=      5-min Rain = 0
KHA2 171218Z 25007KT 13/13 A3006 RMK A01 T01330133  RH  100%=      5-min Rain = 0
KHA2 171219Z 25008KT 13/13 A3006 RMK A01 T01340133  RH  100%=      5-min Rain = 0
KHA2 171220Z 25007KT 13/13 A3006 RMK A01 T01340133  RH  100%=      5-min Rain = 0
KHA2 171221Z 25007KT 14/13 A3006 RMK A01 T01350134  RH  100%=      5-min Rain = 0
KHA2 171222Z 24007KT 14/14 A3006 RMK A01 T01350135  RH  100%=      5-min Rain = 0
KHA2 171223Z 24006KT 14/13 A3006 RMK A01 T01350134  RH  100%=      5-min Rain = 0
KHA2 171224Z 24006KT 14/14 A3006 RMK A01 T01350135  RH  100%=      5-min Rain = 0
KHA2 171225Z 23006KT 14/14 A3006 RMK A01 T01360135  RH  099%=      5-min Rain = 0
KHA2 171226Z 23005KT 14/14 A3006 RMK A01 T01360135  RH  099%=      5-min Rain = 0
KHA2 171227Z 23005KT 14/14 A3006 RMK A01 T01360135  RH  099%=      5-min Rain = 0
KHA2 171228Z 23004KT 14/14 A3006 RMK A01 T01360135  RH  099%=      5-min Rain = 0
KHA2 171229Z 24005KT 14/14 A3006 RMK A01 T01370136  RH  099%=      5-min Rain = 0
KHA2 171230Z 24005KT 14/14 A3007 RMK A01 T01380138  RH  099%=      5-min Rain = 0
KHA2 171231Z 24006KT 14/14 A3007 RMK A01 T01400139  RH  099%=      5-min Rain = 0
KHA2 171232Z 24006KT 14/14 A3007 RMK A01 T01400139  RH  099%=      5-min Rain = 0
KHA2 171233Z 24006KT 14/14 A3007 RMK A01 T01420141  RH  099%=      5-min Rain = 0
KHA2 171234Z 24006KT 14/14 A3007 RMK A01 T01420141  RH  099%=      5-min Rain = 0
KHA2 171235Z 24005KT 14/14 A3007 RMK A01 T01430142  RH  099%=      5-min Rain = 0
KHA2 171236Z 23005KT 14/14 A3006 RMK A01 T01440143  RH  099%=      5-min Rain = 0
KHA2 171237Z 23005KT 15/14 A3006 RMK A01 T01450144  RH  099%=      5-min Rain = 0
KHA2 171238Z 23005KT 15/14 A3006 RMK A01 T01460144  RH  099%=      5-min Rain = 0
KHA2 171239Z 23004KT 15/15 A3006 RMK A01 T01470145  RH  099%=      5-min Rain = 0
KHA2 171240Z 24005KT 15/15 A3007 RMK A01 T01480147  RH  099%=      5-min Rain = 0
KHA2 171241Z 24005KT 15/15 A3007 RMK A01 T01490147  RH  099%=      5-min Rain = 0
KHA2 171242Z 24005KT 15/15 A3007 RMK A01 T01500148  RH  099%=      5-min Rain = 0
KHA2 171243Z 24006KT 15/15 A3007 RMK A01 T01500149  RH  099%=      5-min Rain = 0
KHA2 171244Z 24006KT 15/15 A3007 RMK A01 T01510149  RH  099%=      5-min Rain = 0
KHA2 171245Z 24005KT 15/15 A3007 RMK A01 T01520150  RH  099%=      5-min Rain = 0
KHA2 171246Z 23005KT 15/15 A3007 RMK A01 T01520150  RH  098%=      5-min Rain = 0
KHA2 171247Z 23005KT 15/15 A3007 RMK A01 T01530150  RH  098%=      5-min Rain = 0
KHA2 171248Z 22005KT 15/15 A3007 RMK A01 T01530150  RH  098%=      5-min Rain = 0
KHA2 171249Z 22005KT 16/15 A3007 RMK A01 T01550152  RH  098%=      5-min Rain = 0
KHA2 171250Z 22005KT 16/15 A3007 RMK A01 T01560153  RH  098%=      5-min Rain = 0
KHA2 171251Z 22005KT 16/15 A3007 RMK A01 T01570153  RH  098%=      5-min Rain = 0
KHA2 171252Z 23005KT 16/15 A3007 RMK A01 T01570153  RH  097%=      5-min Rain = 0
KHA2 171253Z 22006KT 16/15 A3007 RMK A01 T01580153  RH  097%=      5-min Rain = 0
KHA2 171254Z 22005KT 16/15 A3006 RMK A01 T01580153  RH  097%=      5-min Rain = 0
KHA2 171255Z 22004KT 16/15 A3006 RMK A01 T01600154  RH  096%=      5-min Rain = 0
KHA2 171256Z 21006KT 16/15 A3006 RMK A01 T01610154  RH  096%=      5-min Rain = 0
KHA2 171257Z 22005KT 16/15 A3006 RMK A01 T01620154  RH  095%=      5-min Rain = 0
KHA2 171258Z 21006KT 16/16 A3006 RMK A01 T01630155  RH  095%=      5-min Rain = 0
KHA2 171259Z 21006KT 17/16 A3006 RMK A01 T01650155  RH  094%=      5-min Rain = 0
KHA2 171300Z 22005KT 17/16 A3006 RMK A01 T01660155  RH  093%=      5-min Rain = 0
KHA2 171301Z 22006KT 17/15 A3007 RMK A01 T01670154  RH  092%=      5-min Rain = 0
KHA2 171302Z 22006KT 17/15 A3007 RMK A01 T01680154  RH  092%=      5-min Rain = 0
KHA2 171303Z 22006KT 17/15 A3007 RMK A01 T01700154  RH  091%=      5-min Rain = 0
KHA2 171304Z 22006KT 17/16 A3007 RMK A01 T01710155  RH  090%=      5-min Rain = 0
KHA2 171305Z 22005KT 17/16 A3007 RMK A01 T01720156  RH  090%=      5-min Rain = 0
KHA2 171306Z 22006KT 17/16 A3007 RMK A01 T01740155  RH  089%=      5-min Rain = 0
KHA2 171307Z 22006KT 18/16 A3007 RMK A01 T01750155  RH  088%=      5-min Rain = 0
KHA2 171308Z 22007KT 18/15 A3007 RMK A01 T01750154  RH  087%=      5-min Rain = 0
KHA2 171309Z 22006KT 18/15 A3007 RMK A01 T01760154  RH  087%=      5-min Rain = 0
KHA2 171310Z 22006KT 18/16 A3007 RMK A01 T01760155  RH  088%=      5-min Rain = 0
KHA2 171311Z 22006KT 18/16 A3007 RMK A01 T01770156  RH  087%=      5-min Rain = 0
KHA2 171312Z 22005KT 18/16 A3007 RMK A01 T01790157  RH  087%=      5-min Rain = 0
KHA2 171313Z 22007KT 18/16 A3007 RMK A01 T01800157  RH  086%=      5-min Rain = 0
KHA2 171314Z 23006KT 18/16 A3007 RMK A01 T01800155  RH  085%=      5-min Rain = 0
KHA2 171315Z 22006KT 18/16 A3007 RMK A01 T01800155  RH  085%=      5-min Rain = 0
KHA2 171316Z 21006KT 18/16 A3007 RMK A01 T01810155  RH  085%=      5-min Rain = 0
KHA2 171317Z 22007KT 18/16 A3007 RMK A01 T01810156  RH  085%=      5-min Rain = 0
KHA2 171318Z 22006KT 18/16 A3007 RMK A01 T01820156  RH  085%=      5-min Rain = 0
KHA2 171319Z 21006KT 18/16 A3007 RMK A01 T01820157  RH  085%=      5-min Rain = 0
KHA2 171320Z 21006KT 18/16 A3007 RMK A01 T01840158  RH  085%=      5-min Rain = 0
KHA2 171321Z 21006KT 19/16 A3007 RMK A01 T01860160  RH  085%=      5-min Rain = 0
KHA2 171322Z 21006KT 19/16 A3007 RMK A01 T01870160  RH  084%=      5-min Rain = 0
KHA2 171323Z 21007KT 19/16 A3007 RMK A01 T01880159  RH  083%=      5-min Rain = 0
KHA2 171324Z 21007KT 19/16 A3007 RMK A01 T01880158  RH  083%=      5-min Rain = 0
KHA2 171325Z 20007KT 19/16 A3007 RMK A01 T01880158  RH  083%=      5-min Rain = 0
KHA2 171326Z 20007KT 19/16 A3007 RMK A01 T01890159  RH  083%=      5-min Rain = 0
KHA2 171327Z 21007KT 19/16 A3006 RMK A01 T01900159  RH  082%=      5-min Rain = 0
KHA2 171328Z 21009KT 19/16 A3006 RMK A01 T01900159  RH  082%=      5-min Rain = 0
KHA2 171329Z 21008KT 19/16 A3006 RMK A01 T01900158  RH  081%=      5-min Rain = 0
KHA2 171330Z 21007KT 19/16 A3006 RMK A01 T01900158  RH  081%=      5-min Rain = 0
KHA2 171331Z 21006KT 19/16 A3006 RMK A01 T01900159  RH  082%=      5-min Rain = 0
KHA2 171332Z 21006KT 19/16 A3006 RMK A01 T01910158  RH  081%=      5-min Rain = 0
KHA2 171333Z 20007KT 19/16 A3006 RMK A01 T01920158  RH  081%=      5-min Rain = 0
KHA2 171334Z 20006KT 19/16 A3006 RMK A01 T01920156  RH  080%=      5-min Rain = 0
KHA2 171335Z 20007KT 19/16 A3006 RMK A01 T01930156  RH  079%=      5-min Rain = 0
KHA2 171336Z 20009KT 19/16 A3006 RMK A01 T01940157  RH  079%=      5-min Rain = 0
KHA2 171337Z 20008KT 19/16 A3006 RMK A01 T01940156  RH  078%=      5-min Rain = 0
KHA2 171338Z 19007KT 19/16 A3006 RMK A01 T01940156  RH  078%=      5-min Rain = 0
KHA2 171339Z 19007KT 19/16 A3006 RMK A01 T01940155  RH  078%=      5-min Rain = 0
KHA2 171340Z 19006KT 19/16 A3006 RMK A01 T01940157  RH  079%=      5-min Rain = 0
KHA2 171341Z 18007KT 20/16 A3006 RMK A01 T01950155  RH  078%=      5-min Rain = 0
KHA2 171342Z 19007KT 20/15 A3006 RMK A01 T01950154  RH  077%=      5-min Rain = 0
KHA2 171343Z 18008KT 19/15 A3006 RMK A01 T01940154  RH  077%=      5-min Rain = 0
KHA2 171344Z 18009KT 20/16 A3006 RMK A01 T01950155  RH  078%=      5-min Rain = 0
KHA2 171345Z 19008KT 19/15 A3006 RMK A01 T01930153  RH  077%=      5-min Rain = 0
KHA2 171346Z 19008KT 19/15 A3006 RMK A01 T01920153  RH  078%=      5-min Rain = 0
KHA2 171347Z 19008KT 19/15 A3006 RMK A01 T01920154  RH  079%=      5-min Rain = 0
KHA2 171348Z 19008KT 19/15 A3006 RMK A01 T01910154  RH  079%=      5-min Rain = 0
KHA2 171349Z 19007KT 19/16 A3006 RMK A01 T01920156  RH  080%=      5-min Rain = 0
KHA2 171350Z 19006KT 19/16 A3006 RMK A01 T01940157  RH  079%=      5-min Rain = 0
KHA2 171351Z 17006KT 20/16 A3006 RMK A01 T01970159  RH  079%=      5-min Rain = 0
KHA2 171352Z 18009KT 20/16 A3006 RMK A01 T01990159  RH  078%=      5-min Rain = 0
KHA2 171353Z 18008KT 20/16 A3006 RMK A01 T02000157  RH  076%=      5-min Rain = 0
KHA2 171354Z 19007KT 20/16 A3006 RMK A01 T02000157  RH  076%=      5-min Rain = 0
KHA2 171355Z 18007KT 20/16 A3007 RMK A01 T02000157  RH  076%=      5-min Rain = 0
KHA2 171356Z 19008KT 20/16 A3007 RMK A01 T02000155  RH  075%=      5-min Rain = 0
KHA2 171357Z 18009KT 20/15 A3007 RMK A01 T02010154  RH  074%=      5-min Rain = 0
KHA2 171358Z 18008KT 20/15 A3007 RMK A01 T02010153  RH  074%=      5-min Rain = 0
KHA2 171359Z 18008KT 20/15 A3007 RMK A01 T02010153  RH  074%=      5-min Rain = 0
KHA2 171400Z 18007KT 20/15 A3007 RMK A01 T02010154  RH  074%=      5-min Rain = 0
KHA2 171401Z 17008KT 20/16 A3007 RMK A01 T02010155  RH  075%=      5-min Rain = 0
KHA2 171402Z 18008KT 20/15 A3007 RMK A01 T02030154  RH  074%=      5-min Rain = 0
KHA2 171403Z 17008KT 20/15 A3007 RMK A01 T02040153  RH  073%=      5-min Rain = 0
KHA2 171404Z 18008KT 20/15 A3007 RMK A01 T02040153  RH  072%=      5-min Rain = 0
KHA2 171405Z 19008KT 20/15 A3007 RMK A01 T02040152  RH  072%=      5-min Rain = 0
KHA2 171406Z 17008KT 20/15 A3007 RMK A01 T02040154  RH  073%=      5-min Rain = 0
KHA2 171407Z 17008KT 21/16 A3007 RMK A01 T02060155  RH  072%=      5-min Rain = 0
KHA2 171408Z 17007KT 21/16 A3007 RMK A01 T02070156  RH  072%=      5-min Rain = 0
KHA2 171409Z 18009KT 21/16 A3007 RMK A01 T02090156  RH  071%=      5-min Rain = 0
KHA2 171410Z 17008KT 21/15 A3007 RMK A01 T02080154  RH  071%=      5-min Rain = 0
KHA2 171411Z 17008KT 21/15 A3007 RMK A01 T02050152  RH  071%=      5-min Rain = 0
KHA2 171412Z 18009KT 20/15 A3007 RMK A01 T02030153  RH  073%=      5-min Rain = 0
KHA2 171413Z 19007KT 20/15 A3008 RMK A01 T02010152  RH  073%=      5-min Rain = 0
KHA2 171414Z 19006KT 20/15 A3008 RMK A01 T02010152  RH  074%=      5-min Rain = 0
KHA2 171415Z 18008KT 20/15 A3008 RMK A01 T02000153  RH  074%=      5-min Rain = 0
KHA2 171416Z 20007KT 20/15 A3008 RMK A01 T02000153  RH  074%=      5-min Rain = 0
KHA2 171417Z 19006KT 20/15 A3008 RMK A01 T02000153  RH  074%=      5-min Rain = 0
KHA2 171418Z 19005KT 20/15 A3008 RMK A01 T02010154  RH  074%=      5-min Rain = 0
KHA2 171419Z 20007KT 20/16 A3008 RMK A01 T02040156  RH  074%=      5-min Rain = 0
KHA2 171420Z 20007KT 21/16 A3008 RMK A01 T02070157  RH  073%=      5-min Rain = 0
KHA2 171421Z 20007KT 21/16 A3008 RMK A01 T02090156  RH  072%=      5-min Rain = 0
KHA2 171422Z 18008KT 21/16 A3008 RMK A01 T02090156  RH  071%=      5-min Rain = 0
KHA2 171423Z 18007KT 21/16 A3008 RMK A01 T02100156  RH  071%=      5-min Rain = 0
KHA2 171424Z 19006KT 21/16 A3008 RMK A01 T02100155  RH  071%=      5-min Rain = 0
KHA2 171425Z 17006KT 21/16 A3008 RMK A01 T02100156  RH  071%=      5-min Rain = 0
KHA2 171426Z 18006KT 21/15 A3008 RMK A01 T02080153  RH  071%=      5-min Rain = 0
KHA2 171427Z 17006KT 21/16 A3008 RMK A01 T02070155  RH  072%=      5-min Rain = 0
KHA2 171428Z 17009KT 21/16 A3008 RMK A01 T02090157  RH  072%=      5-min Rain = 0
KHA2 171429Z 17007KT 21/16 A3008 RMK A01 T02100157  RH  071%=      5-min Rain = 0
KHA2 171430Z 16006KT 21/16 A3008 RMK A01 T02110156  RH  071%=      5-min Rain = 0
KHA2 171431Z 18008KT 21/16 A3008 RMK A01 T02110156  RH  071%=      5-min Rain = 0
KHA2 171432Z 18007KT 21/16 A3008 RMK A01 T02120156  RH  071%=      5-min Rain = 0
KHA2 171433Z 17007KT 21/16 A3008 RMK A01 T02120156  RH  070%=      5-min Rain = 0
KHA2 171434Z 17008KT 21/16 A3008 RMK A01 T02130157  RH  070%=      5-min Rain = 0
KHA2 171435Z 16007KT 21/16 A3008 RMK A01 T02130156  RH  070%=      5-min Rain = 0
KHA2 171436Z 18008KT 21/16 A3008 RMK A01 T02140156  RH  069%=      5-min Rain = 0
KHA2 171437Z 17008KT 21/16 A3008 RMK A01 T02140155  RH  069%=      5-min Rain = 0
KHA2 171438Z 17008KT 21/16 A3008 RMK A01 T02140155  RH  069%=      5-min Rain = 0
KHA2 171439Z 17006KT 21/15 A3008 RMK A01 T02140154  RH  069%=      5-min Rain = 0
KHA2 171440Z 15007KT 21/16 A3008 RMK A01 T02130156  RH  070%=      5-min Rain = 0
KHA2 171441Z 17007KT 22/16 A3008 RMK A01 T02150157  RH  069%=      5-min Rain = 0
KHA2 171442Z 18006KT 22/16 A3008 RMK A01 T02150155  RH  068%=      5-min Rain = 0
KHA2 171443Z 16007KT 22/16 A3008 RMK A01 T02160157  RH  069%=      5-min Rain = 0
KHA2 171444Z 15005KT 22/16 A3008 RMK A01 T02170155  RH  068%=      5-min Rain = 0
KHA2 171445Z 18005KT 22/16 A3008 RMK A01 T02170156  RH  068%=      5-min Rain = 0
KHA2 171446Z 17008KT 22/16 A3008 RMK A01 T02190160  RH  069%=      5-min Rain = 0
KHA2 171447Z 17007KT 22/15 A3008 RMK A01 T02200154  RH  066%=      5-min Rain = 0
KHA2 171448Z 18006KT 22/16 A3008 RMK A01 T02190156  RH  068%=      5-min Rain = 0
KHA2 171449Z 19007KT 22/16 A3008 RMK A01 T02190155  RH  067%=      5-min Rain = 0
KHA2 171450Z 18007KT 22/16 A3008 RMK A01 T02200156  RH  067%=      5-min Rain = 0
KHA2 171451Z 18007KT 22/16 A3008 RMK A01 T02210158  RH  067%=      5-min Rain = 0
KHA2 171452Z 19008KT 22/16 A3008 RMK A01 T02220157  RH  066%=      5-min Rain = 0
KHA2 171453Z 17007KT 22/16 A3008 RMK A01 T02220155  RH  066%=      5-min Rain = 0
KHA2 171454Z 18008KT 22/16 A3008 RMK A01 T02220156  RH  066%=      5-min Rain = 0
KHA2 171455Z 18009KT 22/15 A3008 RMK A01 T02240153  RH  064%=      5-min Rain = 0
KHA2 171456Z 17007KT 22/15 A3008 RMK A01 T02220151  RH  064%=      5-min Rain = 0
KHA2 171457Z 20008KT 22/15 A3008 RMK A01 T02220153  RH  065%=      5-min Rain = 0
KHA2 171458Z 20005KT 22/15 A3009 RMK A01 T02210153  RH  065%=      5-min Rain = 0
KHA2 171459Z 20007KT 22/16 A3008 RMK A01 T02220155  RH  066%=      5-min Rain = 0
KHA2 171500Z 19008KT 22/15 A3009 RMK A01 T02240152  RH  064%=      5-min Rain = 0
KHA2 171501Z 20006KT 22/15 A3009 RMK A01 T02240148  RH  062%=      5-min Rain = 0
KHA2 171502Z 20009KT 23/15 A3009 RMK A01 T02250151  RH  063%=      5-min Rain = 0
KHA2 171503Z 18008KT 23/15 A3009 RMK A01 T02260150  RH  062%=      5-min Rain = 0
KHA2 171504Z 19007KT 23/15 A3009 RMK A01 T02260149  RH  062%=      5-min Rain = 0
KHA2 171505Z 18006KT 23/16 A3009 RMK A01 T02270155  RH  064%=      5-min Rain = 0
KHA2 171506Z 17005KT 23/15 A3009 RMK A01 T02290153  RH  063%=      5-min Rain = 0
KHA2 171507Z 16005KT 23/15 A3009 RMK A01 T02260154  RH  064%=      5-min Rain = 0
KHA2 171508Z 18007KT 23/15 A3009 RMK A01 T02270154  RH  064%=      5-min Rain = 0
KHA2 171509Z 18008KT 23/15 A3009 RMK A01 T02280153  RH  063%=      5-min Rain = 0
KHA2 171510Z 19006KT 23/15 A3009 RMK A01 T02290153  RH  062%=      5-min Rain = 0
KHA2 171511Z 18004KT 23/15 A3009 RMK A01 T02280152  RH  062%=      5-min Rain = 0
KHA2 171512Z 16007KT 23/15 A3009 RMK A01 T02270153  RH  063%=      5-min Rain = 0
KHA2 171513Z 16006KT 23/15 A3009 RMK A01 T02260152  RH  063%=      5-min Rain = 0
KHA2 171514Z 17006KT 23/15 A3009 RMK A01 T02260152  RH  063%=      5-min Rain = 0
KHA2 171515Z 17006KT 23/15 A3009 RMK A01 T02270151  RH  062%=      5-min Rain = 0
KHA2 171516Z 16007KT 23/15 A3009 RMK A01 T02280152  RH  062%=      5-min Rain = 0
KHA2 171517Z 16007KT 23/15 A3009 RMK A01 T02280149  RH  061%=      5-min Rain = 0
KHA2 171518Z 15007KT 23/15 A3009 RMK A01 T02280151  RH  062%=      5-min Rain = 0
KHA2 171519Z 17007KT 23/15 A3009 RMK A01 T02280152  RH  062%=      5-min Rain = 0
KHA2 171520Z 17005KT 23/15 A3009 RMK A01 T02280153  RH  062%=      5-min Rain = 0
KHA2 171521Z 18003KT 23/15 A3009 RMK A01 T02280152  RH  062%=      5-min Rain = 0
KHA2 171522Z 17004KT 23/15 A3009 RMK A01 T02270153  RH  063%=      5-min Rain = 0
KHA2 171523Z 16006KT 23/15 A3009 RMK A01 T02280151  RH  062%=      5-min Rain = 0
KHA2 171524Z 19007KT 23/15 A3009 RMK A01 T02290152  RH  062%=      5-min Rain = 0
KHA2 171525Z 17004KT 23/15 A3009 RMK A01 T02330152  RH  061%=      5-min Rain = 0
KHA2 171526Z 23006KT 23/15 A301 RMK A01 T02340149  RH  059%=      5-min Rain = 0
KHA2 171527Z 24005KT 23/14 A3009 RMK A01 T02340144  RH  057%=      5-min Rain = 0
KHA2 171528Z 23007KT 23/14 A3009 RMK A01 T02340144  RH  057%=      5-min Rain = 0
KHA2 171529Z 21007KT 24/15 A301 RMK A01 T02350148  RH  058%=      5-min Rain = 0
KHA2 171530Z 21008KT 24/15 A301 RMK A01 T02390145  RH  056%=      5-min Rain = 0
KHA2 171531Z 20005KT 24/15 A301 RMK A01 T02360145  RH  057%=      5-min Rain = 0
KHA2 171532Z 19005KT 23/15 A3009 RMK A01 T02340147  RH  058%=      5-min Rain = 0
KHA2 171533Z 22007KT 24/15 A3009 RMK A01 T02350149  RH  058%=      5-min Rain = 0
KHA2 171534Z 21007KT 24/15 A3009 RMK A01 T02370148  RH  057%=      5-min Rain = 0
KHA2 171535Z 21006KT 24/15 A3009 RMK A01 T02400149  RH  057%=      5-min Rain = 0
KHA2 171536Z 19007KT 24/15 A3009 RMK A01 T02410146  RH  055%=      5-min Rain = 0
KHA2 171537Z 19005KT 24/14 A3009 RMK A01 T02380143  RH  055%=      5-min Rain = 0
KHA2 171538Z 19003KT 24/15 A3009 RMK A01 T02360145  RH  057%=      5-min Rain = 0
KHA2 171539Z 21004KT 24/15 A3009 RMK A01 T02360145  RH  056%=      5-min Rain = 0
KHA2 171540Z 22007KT 24/14 A3009 RMK A01 T02370144  RH  056%=      5-min Rain = 0
KHA2 171541Z 21006KT 24/15 A3009 RMK A01 T02390146  RH  056%=      5-min Rain = 0
KHA2 171542Z 19005KT 24/15 A3009 RMK A01 T02430146  RH  055%=      5-min Rain = 0
KHA2 171543Z 18008KT 24/15 A3009 RMK A01 T02440145  RH  054%=      5-min Rain = 0
KHA2 171544Z 17007KT 24/14 A3009 RMK A01 T02410143  RH  054%=      5-min Rain = 0
KHA2 171545Z 19004KT 24/14 A3009 RMK A01 T02370140  RH  055%=      5-min Rain = 0
KHA2 171546Z 22005KT 24/14 A3009 RMK A01 T02360141  RH  055%=      5-min Rain = 0
KHA2 171547Z 20004KT 24/14 A3009 RMK A01 T02380139  RH  054%=      5-min Rain = 0
KHA2 171548Z 19003KT 24/14 A3009 RMK A01 T02370137  RH  053%=      5-min Rain = 0
KHA2 171549Z 18004KT 24/14 A3009 RMK A01 T02360138  RH  054%=      5-min Rain = 0
KHA2 171550Z 17005KT 24/14 A3009 RMK A01 T02380143  RH  055%=      5-min Rain = 0
KHA2 171551Z 18006KT 24/14 A3009 RMK A01 T02400141  RH  054%=      5-min Rain = 0
KHA2 171552Z 18005KT 24/14 A3009 RMK A01 T02390137  RH  053%=      5-min Rain = 0
KHA2 171553Z 17005KT 24/14 A3009 RMK A01 T02370136  RH  053%=      5-min Rain = 0
KHA2 171554Z 17003KT 24/14 A3009 RMK A01 T02360137  RH  054%=      5-min Rain = 0
KHA2 171555Z 17001KT 24/14 A3009 RMK A01 T02360139  RH  054%=      5-min Rain = 0
KHA2 171556Z 15002KT 24/14 A3009 RMK A01 T02380138  RH  054%=      5-min Rain = 0
KHA2 171557Z 20004KT 24/14 A3009 RMK A01 T02390141  RH  054%=      5-min Rain = 0
KHA2 171558Z 18005KT 24/14 A3009 RMK A01 T02410140  RH  053%=      5-min Rain = 0
KHA2 171559Z 17004KT 24/14 A3009 RMK A01 T02410142  RH  054%=      5-min Rain = 0
KHA2 171600Z 17007KT 24/15 A3009 RMK A01 T02400146  RH  056%=      5-min Rain = 0
KHA2 171601Z 15006KT 24/14 A301 RMK A01 T02410142  RH  054%=      5-min Rain = 0
KHA2 171602Z 16007KT 24/14 A301 RMK A01 T02410142  RH  054%=      5-min Rain = 0
KHA2 171603Z 16004KT 24/14 A301 RMK A01 T02410139  RH  053%=      5-min Rain = 0
KHA2 171604Z 14003KT 24/14 A301 RMK A01 T02400139  RH  053%=      5-min Rain = 0
KHA2 171605Z 18001KT 24/14 A301 RMK A01 T02400143  RH  054%=      5-min Rain = 0
KHA2 171606Z 22006KT 24/14 A301 RMK A01 T02430142  RH  053%=      5-min Rain = 0
KHA2 171607Z 21005KT 24/14 A301 RMK A01 T02440141  RH  052%=      5-min Rain = 0
KHA2 171608Z 24006KT 24/14 A301 RMK A01 T02430140  RH  053%=      5-min Rain = 0
KHA2 171609Z 26006KT 24/14 A301 RMK A01 T02430138  RH  052%=      5-min Rain = 0
KHA2 171610Z 26005KT 24/14 A301 RMK A01 T02440137  RH  051%=      5-min Rain = 0
KHA2 171611Z 28003KT 24/14 A301 RMK A01 T02440136  RH  051%=      5-min Rain = 0
KHA2 171612Z 25004KT 24/14 A301 RMK A01 T02440135  RH  051%=      5-min Rain = 0
KHA2 171613Z 25004KT 24/14 A301 RMK A01 T02440136  RH  051%=      5-min Rain = 0
KHA2 171614Z 21003KT 24/13 A301 RMK A01 T02440130  RH  049%=      5-min Rain = 0
KHA2 171615Z 22005KT 25/13 A301 RMK A01 T02450130  RH  049%=      5-min Rain = 0
KHA2 171616Z 18008KT 25/14 A301 RMK A01 T02450136  RH  050%=      5-min Rain = 0
KHA2 171617Z 19007KT 25/13 A301 RMK A01 T02470129  RH  048%=      5-min Rain = 0
KHA2 171618Z 19008KT 25/13 A301 RMK A01 T02470127  RH  047%=      5-min Rain = 0
KHA2 171619Z 19006KT 25/13 A301 RMK A01 T02480129  RH  048%=      5-min Rain = 0
KHA2 171620Z 19004KT 25/13 A301 RMK A01 T02470129  RH  048%=      5-min Rain = 0
KHA2 171621Z 23003KT 25/13 A301 RMK A01 T02460129  RH  048%=      5-min Rain = 0
KHA2 171622Z 32001KT 25/13 A3009 RMK A01 T02450127  RH  048%=      5-min Rain = 0
KHA2 171623Z 14001KT 24/13 A3009 RMK A01 T02440129  RH  049%=      5-min Rain = 0
KHA2 171624Z 16003KT 25/13 A3009 RMK A01 T02450132  RH  050%=      5-min Rain = 0
KHA2 171625Z 22004KT 25/13 A3009 RMK A01 T02460134  RH  050%=      5-min Rain = 0
KHA2 171626Z 18004KT 25/14 A3009 RMK A01 T02480136  RH  050%=      5-min Rain = 0
KHA2 171627Z 19001KT 25/13 A3009 RMK A01 T02510134  RH  048%=      5-min Rain = 0
KHA2 171628Z 19003KT 25/13 A3009 RMK A01 T02510134  RH  048%=      5-min Rain = 0
KHA2 171629Z 20004KT 25/14 A3009 RMK A01 T02520135  RH  048%=      5-min Rain = 0
KHA2 171630Z 19005KT 25/14 A3009 RMK A01 T02530136  RH  048%=      5-min Rain = 0
KHA2 171631Z 19008KT 25/14 A3009 RMK A01 T02530136  RH  048%=      5-min Rain = 0
KHA2 171632Z 21008KT 25/13 A3009 RMK A01 T02530134  RH  047%=      5-min Rain = 0
KHA2 171633Z 21009KT 25/13 A3009 RMK A01 T02540133  RH  047%=      5-min Rain = 0
KHA2 171634Z 22008KT 26/13 A3009 RMK A01 T02580133  RH  046%=      5-min Rain = 0
KHA2 171635Z 23005KT 26/13 A3009 RMK A01 T02560130  RH  045%=      5-min Rain = 0
KHA2 171636Z 20008KT 25/13 A301 RMK A01 T02540133  RH  047%=      5-min Rain = 0
KHA2 171637Z 20006KT 25/13 A301 RMK A01 T02540129  RH  046%=      5-min Rain = 0
KHA2 171638Z 20007KT 25/13 A301 RMK A01 T02530130  RH  046%=      5-min Rain = 0
KHA2 171639Z 21007KT 25/13 A301 RMK A01 T02520128  RH  046%=      5-min Rain = 0
KHA2 171640Z 21005KT 25/13 A301 RMK A01 T02520129  RH  046%=      5-min Rain = 0
KHA2 171641Z 23004KT 25/13 A301 RMK A01 T02540132  RH  047%=      5-min Rain = 0
KHA2 171642Z 17002KT 26/13 A3009 RMK A01 T02560129  RH  045%=      5-min Rain = 0
KHA2 171643Z 12001KT 26/13 A3009 RMK A01 T02560129  RH  045%=      5-min Rain = 0
KHA2 171644Z 27002KT 26/13 A3009 RMK A01 T02550129  RH  046%=      5-min Rain = 0
KHA2 171645Z 27003KT 26/12 A3009 RMK A01 T02550124  RH  044%=      5-min Rain = 0
KHA2 171646Z 28003KT 25/13 A3009 RMK A01 T02530128  RH  046%=      5-min Rain = 0
KHA2 171647Z 26001KT 26/13 A3009 RMK A01 T02560128  RH  045%=      5-min Rain = 0
KHA2 171648Z 25005KT 26/13 A3009 RMK A01 T02570130  RH  045%=      5-min Rain = 0
KHA2 171649Z 22007KT 26/13 A3009 RMK A01 T02580131  RH  045%=      5-min Rain = 0
KHA2 171650Z 21007KT 26/13 A3009 RMK A01 T02590132  RH  045%=      5-min Rain = 0
KHA2 171651Z 22008KT 26/13 A3009 RMK A01 T02590131  RH  045%=      5-min Rain = 0
KHA2 171652Z 23008KT 26/13 A3009 RMK A01 T02550129  RH  046%=      5-min Rain = 0
KHA2 171653Z 24005KT 25/13 A3009 RMK A01 T02530130  RH  046%=      5-min Rain = 0
KHA2 171654Z 25003KT 25/13 A3009 RMK A01 T02520128  RH  046%=      5-min Rain = 0
KHA2 171655Z 23005KT 25/13 A3009 RMK A01 T02510130  RH  047%=      5-min Rain = 0
KHA2 171656Z 22006KT 25/13 A3009 RMK A01 T02530130  RH  046%=      5-min Rain = 0
KHA2 171657Z 19007G12KT 25/13 A3009 RMK A01 T02540131  RH  046%=      5-min Rain = 0
KHA2 171658Z 15005KT 26/13 A3009 RMK A01 T02560131  RH  046%=      5-min Rain = 0
KHA2 171659Z 16007KT 26/14 A3009 RMK A01 T02580135  RH  047%=      5-min Rain = 0
KHA2 171700Z 16006KT 26/13 A3009 RMK A01 T02580128  RH  044%=      5-min Rain = 0
KHA2 171701Z 14006KT 25/13 A3009 RMK A01 T02540130  RH  046%=      5-min Rain = 0
KHA2 171702Z 12007KT 25/13 A3009 RMK A01 T02540129  RH  046%=      5-min Rain = 0
KHA2 171703Z 15007KT 26/13 A3009 RMK A01 T02560131  RH  046%=      5-min Rain = 0
KHA2 171704Z 15006KT 26/13 A3009 RMK A01 T02570130  RH  045%=      5-min Rain = 0
KHA2 171705Z 16004KT 26/13 A3009 RMK A01 T02570126  RH  044%=      5-min Rain = 0
KHA2 171706Z 13002KT 26/13 A3009 RMK A01 T02550129  RH  045%=      5-min Rain = 0
KHA2 171707Z 12004KT 26/13 A3009 RMK A01 T02560126  RH  045%=      5-min Rain = 0
KHA2 171708Z 16006KT 26/13 A3009 RMK A01 T02560130  RH  046%=      5-min Rain = 0
KHA2 171709Z 18009KT 26/12 A3009 RMK A01 T02580124  RH  043%=      5-min Rain = 0
KHA2 171710Z 19007KT 26/12 A3009 RMK A01 T02570122  RH  043%=      5-min Rain = 0
KHA2 171711Z 19006KT 26/12 A3009 RMK A01 T02580122  RH  043%=      5-min Rain = 0
KHA2 171712Z 18005KT 26/12 A3009 RMK A01 T02580122  RH  043%=      5-min Rain = 0
KHA2 171713Z 17001KT 26/12 A3009 RMK A01 T02580122  RH  043%=      5-min Rain = 0
KHA2 171714Z 13006KT 26/12 A3009 RMK A01 T02590122  RH  043%=      5-min Rain = 0
KHA2 171715Z 11004KT 26/12 A3009 RMK A01 T02580122  RH  043%=      5-min Rain = 0
KHA2 171716Z 17007KT 26/13 A3009 RMK A01 T02590125  RH  043%=      5-min Rain = 0
KHA2 171717Z 18008KT 26/12 A3009 RMK A01 T02590123  RH  043%=      5-min Rain = 0
KHA2 171718Z 21009KT 26/12 A3009 RMK A01 T02580123  RH  043%=      5-min Rain = 0
KHA2 171719Z 18009KT 26/13 A3009 RMK A01 T02620130  RH  044%=      5-min Rain = 0
KHA2 171720Z 17007KT 26/13 A3009 RMK A01 T02640127  RH  043%=      5-min Rain = 0
KHA2 171721Z 15004KT 26/13 A3009 RMK A01 T02600125  RH  043%=      5-min Rain = 0
KHA2 171722Z 14005KT 26/13 A3009 RMK A01 T02570127  RH  044%=      5-min Rain = 0
KHA2 171723Z 13004KT 26/12 A3009 RMK A01 T02570122  RH  043%=      5-min Rain = 0
KHA2 171724Z 18007KT 26/12 A3009 RMK A01 T02560122  RH  043%=      5-min Rain = 0
KHA2 171725Z 19005KT 26/12 A3009 RMK A01 T02580116  RH  041%=      5-min Rain = 0
KHA2 171726Z 22000KT 26/12 A3009 RMK A01 T02580118  RH  042%=      5-min Rain = 0
KHA2 171727Z 14000KT 26/12 A3009 RMK A01 T02570121  RH  043%=      5-min Rain = 0
KHA2 171728Z 17003KT 26/12 A3009 RMK A01 T02570124  RH  044%=      5-min Rain = 0
KHA2 171729Z 18006KT 26/13 A3009 RMK A01 T02580125  RH  044%=      5-min Rain = 0
KHA2 171730Z 18010KT 26/13 A3009 RMK A01 T02610128  RH  044%=      5-min Rain = 0
KHA2 171731Z 19010KT 26/13 A3009 RMK A01 T02640129  RH  043%=      5-min Rain = 0
KHA2 171732Z 19008KT 27/13 A3009 RMK A01 T02650129  RH  043%=      5-min Rain = 0
KHA2 171733Z 19010KT 27/13 A3009 RMK A01 T02670129  RH  042%=      5-min Rain = 0
KHA2 171734Z 18008KT 27/13 A3009 RMK A01 T02690128  RH  042%=      5-min Rain = 0
KHA2 171735Z 19006KT 27/12 A3009 RMK A01 T02670124  RH  041%=      5-min Rain = 0
KHA2 171736Z 21004KT 26/12 A3009 RMK A01 T02640122  RH  041%=      5-min Rain = 0
KHA2 171737Z 12004KT 26/12 A3009 RMK A01 T02620123  RH  042%=      5-min Rain = 0
KHA2 171738Z 12007KT 26/12 A3009 RMK A01 T02610122  RH  042%=      5-min Rain = 0
KHA2 171739Z 13004KT 26/12 A3009 RMK A01 T02590119  RH  042%=      5-min Rain = 0
KHA2 171740Z 11002KT 26/12 A3009 RMK A01 T02580120  RH  042%=      5-min Rain = 0
KHA2 171741Z 12002KT 26/12 A3009 RMK A01 T02590121  RH  042%=      5-min Rain = 0
KHA2 171742Z 12003KT 26/12 A3009 RMK A01 T02610124  RH  043%=      5-min Rain = 0
KHA2 171743Z 15003KT 26/12 A3009 RMK A01 T02630121  RH  041%=      5-min Rain = 0
KHA2 171744Z 17007KT 26/12 A3009 RMK A01 T02620123  RH  042%=      5-min Rain = 0
KHA2 171745Z 17006KT 26/12 A3009 RMK A01 T02640123  RH  041%=      5-min Rain = 0
KHA2 171746Z 16005KT 26/12 A3009 RMK A01 T02640121  RH  041%=      5-min Rain = 0
KHA2 171747Z 19006KT 26/12 A3009 RMK A01 T02640122  RH  041%=      5-min Rain = 0
KHA2 171748Z 22007KT 27/12 A3009 RMK A01 T02660120  RH  040%=      5-min Rain = 0
KHA2 171749Z 23004KT 27/12 A3009 RMK A01 T02660118  RH  040%=      5-min Rain = 0
KHA2 171750Z 22006KT 27/12 A3009 RMK A01 T02660117  RH  039%=      5-min Rain = 0
KHA2 171751Z 21004KT 27/12 A3009 RMK A01 T02670115  RH  039%=      5-min Rain = 0
KHA2 171752Z 20008KT 27/12 A3009 RMK A01 T02680122  RH  040%=      5-min Rain = 0
KHA2 171753Z 20010KT 27/13 A3008 RMK A01 T02730127  RH  040%=      5-min Rain = 0
KHA2 171754Z 21011KT 28/13 A3008 RMK A01 T02760126  RH  039%=      5-min Rain = 0
KHA2 171755Z 21009KT 28/12 A3008 RMK A01 T02750124  RH  039%=      5-min Rain = 0
KHA2 171756Z 19007KT 28/13 A3008 RMK A01 T02760130  RH  041%=      5-min Rain = 0
KHA2 171757Z 18010KT 28/13 A3008 RMK A01 T02800129  RH  039%=      5-min Rain = 0
KHA2 171758Z 19008KT 28/12 A3008 RMK A01 T02770124  RH  039%=      5-min Rain = 0
KHA2 171759Z 19006KT 27/12 A3008 RMK A01 T02720117  RH  038%=      5-min Rain = 0
KHA2 171800Z 19007KT 27/12 A3008 RMK A01 T02690119  RH  039%=      5-min Rain = 0
KHA2 171801Z 18008KT 27/12 A3008 RMK A01 T02680121  RH  040%=      5-min Rain = 0
KHA2 171802Z 18008KT 27/12 A3008 RMK A01 T02690117  RH  039%=      5-min Rain = 0
KHA2 171803Z 19005KT 27/12 A3008 RMK A01 T02690116  RH  038%=      5-min Rain = 0
KHA2 171804Z 22005KT 27/11 A3008 RMK A01 T02690113  RH  038%=      5-min Rain = 0
KHA2 171805Z 22004KT 27/11 A3008 RMK A01 T02680111  RH  038%=      5-min Rain = 0
KHA2 171806Z 21004KT 27/11 A3008 RMK A01 T02700114  RH  038%=      5-min Rain = 0
KHA2 171807Z 19006KT 27/11 A3008 RMK A01 T02720114  RH  037%=      5-min Rain = 0
KHA2 171808Z 21004KT 27/11 A3008 RMK A01 T02720114  RH  037%=      5-min Rain = 0
KHA2 171809Z 22003KT 27/12 A3008 RMK A01 T02720118  RH  038%=      5-min Rain = 0
KHA2 171810Z 16005KT 27/12 A3008 RMK A01 T02720122  RH  039%=      5-min Rain = 0
KHA2 171811Z 16008G13KT 27/13 A3008 RMK A01 T02740126  RH  040%=      5-min Rain = 0
KHA2 171812Z 17011KT 28/12 A3008 RMK A01 T02750119  RH  038%=      5-min Rain = 0
KHA2 171813Z 18008KT 27/12 A3008 RMK A01 T02740115  RH  037%=      5-min Rain = 0
KHA2 171814Z 16008KT 27/12 A3008 RMK A01 T02720117  RH  038%=      5-min Rain = 0
KHA2 171815Z 15008KT 27/12 A3008 RMK A01 T02730115  RH  037%=      5-min Rain = 0
KHA2 171816Z 16006KT 27/11 A3008 RMK A01 T02720114  RH  037%=      5-min Rain = 0
KHA2 171817Z 15005KT 27/11 A3008 RMK A01 T02710113  RH  037%=      5-min Rain = 0
KHA2 171818Z 13009KT 27/12 A3008 RMK A01 T02690122  RH  040%=      5-min Rain = 0
KHA2 171819Z 14008G13KT 27/13 A3008 RMK A01 T02700125  RH  041%=      5-min Rain = 0
KHA2 171820Z 18007KT 27/12 A3008 RMK A01 T02700120  RH  039%=      5-min Rain = 0
KHA2 171821Z 18007KT 27/12 A3008 RMK A01 T02710121  RH  039%=      5-min Rain = 0
KHA2 171822Z 22007KT 27/12 A3008 RMK A01 T02730120  RH  039%=      5-min Rain = 0
KHA2 171823Z 22006KT 28/12 A3008 RMK A01 T02750117  RH  038%=      5-min Rain = 0
KHA2 171824Z 23007KT 28/12 A3008 RMK A01 T02760117  RH  037%=      5-min Rain = 0
KHA2 171825Z 22007KT 28/12 A3008 RMK A01 T02760116  RH  037%=      5-min Rain = 0
KHA2 171826Z 20006KT 28/12 A3008 RMK A01 T02770120  RH  038%=      5-min Rain = 0
KHA2 171827Z 16008G13KT 28/12 A3008 RMK A01 T02780122  RH  038%=      5-min Rain = 0
KHA2 171828Z 19010KT 28/12 A3008 RMK A01 T02780121  RH  038%=      5-min Rain = 0
KHA2 171829Z 20008KT 28/12 A3008 RMK A01 T02760115  RH  037%=      5-min Rain = 0
KHA2 171830Z 18007KT 27/12 A3008 RMK A01 T02740119  RH  038%=      5-min Rain = 0
KHA2 171831Z 17009KT 28/12 A3007 RMK A01 T02770121  RH  038%=      5-min Rain = 0
KHA2 171832Z 15008G13KT 28/12 A3007 RMK A01 T02770118  RH  037%=      5-min Rain = 0
KHA2 171833Z 17004KT 27/12 A3007 RMK A01 T02720117  RH  038%=      5-min Rain = 0
KHA2 171834Z 19009KT 27/12 A3007 RMK A01 T02720120  RH  039%=      5-min Rain = 0
KHA2 171835Z 21005KT 28/12 A3007 RMK A01 T02750117  RH  038%=      5-min Rain = 0
KHA2 171836Z 19007KT 28/12 A3007 RMK A01 T02750118  RH  038%=      5-min Rain = 0
KHA2 171837Z 18011KT 28/12 A3007 RMK A01 T02770119  RH  037%=      5-min Rain = 0
KHA2 171838Z 18011KT 28/12 A3007 RMK A01 T02770118  RH  037%=      5-min Rain = 0
KHA2 171839Z 17007KT 27/11 A3007 RMK A01 T02730114  RH  037%=      5-min Rain = 0
KHA2 171840Z 16004KT 27/11 A3007 RMK A01 T02710114  RH  038%=      5-min Rain = 0
KHA2 171841Z 16007KT 27/12 A3007 RMK A01 T02720119  RH  039%=      5-min Rain = 0
KHA2 171842Z 17006KT 28/11 A3007 RMK A01 T02750114  RH  037%=      5-min Rain = 0
KHA2 171843Z 17008KT 28/11 A3007 RMK A01 T02760113  RH  036%=      5-min Rain = 0
KHA2 171844Z 15007KT 28/11 A3007 RMK A01 T02770108  RH  035%=      5-min Rain = 0
KHA2 171845Z 13008G13KT 28/11 A3007 RMK A01 T02770107  RH  035%=      5-min Rain = 0
KHA2 171846Z 10005KT 28/11 A3007 RMK A01 T02750105  RH  035%=      5-min Rain = 0
KHA2 171847Z 08004KT 27/11 A3007 RMK A01 T02720107  RH  036%=      5-min Rain = 0
KHA2 171848Z 04002KT 27/11 A3007 RMK A01 T02720112  RH  037%=      5-min Rain = 0
KHA2 171849Z 00001KT 28/11 A3007 RMK A01 T02750112  RH  036%=      5-min Rain = 0
KHA2 171850Z 08005KT 28/11 A3007 RMK A01 T02770111  RH  036%=      5-min Rain = 0
KHA2 171851Z 11009KT 28/12 A3007 RMK A01 T02790123  RH  038%=      5-min Rain = 0
KHA2 171852Z 10008KT 28/12 A3007 RMK A01 T02790118  RH  037%=      5-min Rain = 0
KHA2 171853Z 10008KT 28/12 A3007 RMK A01 T02790120  RH  037%=      5-min Rain = 0
KHA2 171854Z 11007KT 28/12 A3007 RMK A01 T02790120  RH  037%=      5-min Rain = 0
KHA2 171855Z 12007KT 28/11 A3007 RMK A01 T02790114  RH  036%=      5-min Rain = 0
KHA2 171856Z 14009KT 28/12 A3007 RMK A01 T02780115  RH  036%=      5-min Rain = 0
KHA2 171857Z 14006KT 28/12 A3007 RMK A01 T02780115  RH  036%=      5-min Rain = 0
KHA2 171858Z 15006KT 28/12 A3006 RMK A01 T02770117  RH  037%=      5-min Rain = 0
KHA2 171859Z 14005KT 28/12 A3006 RMK A01 T02780119  RH  037%=      5-min Rain = 0
KHA2 171900Z 13004KT 28/12 A3006 RMK A01 T02790118  RH  037%=      5-min Rain = 0
KHA2 171901Z 20004KT 28/12 A3006 RMK A01 T02780116  RH  036%=      5-min Rain = 0
KHA2 171902Z 16003KT 28/12 A3006 RMK A01 T02780117  RH  037%=      5-min Rain = 0
KHA2 171903Z 13009KT 28/12 A3006 RMK A01 T02800116  RH  036%=      5-min Rain = 0
KHA2 171904Z 14011KT 28/12 A3006 RMK A01 T02810119  RH  037%=      5-min Rain = 0
KHA2 171905Z 14013KT 28/11 A3006 RMK A01 T02820114  RH  035%=      5-min Rain = 0
KHA2 171906Z 15009KT 28/11 A3006 RMK A01 T02790114  RH  036%=      5-min Rain = 0
KHA2 171907Z 17007KT 28/12 A3006 RMK A01 T02840121  RH  037%=      5-min Rain = 0
KHA2 171908Z 18008KT 29/12 A3006 RMK A01 T02850119  RH  036%=      5-min Rain = 0
KHA2 171909Z 17007KT 28/12 A3006 RMK A01 T02840115  RH  035%=      5-min Rain = 0
KHA2 171910Z 14008KT 28/11 A3006 RMK A01 T02830112  RH  035%=      5-min Rain = 0
KHA2 171911Z 14007KT 28/11 A3006 RMK A01 T02810109  RH  034%=      5-min Rain = 0
KHA2 171912Z 14011KT 28/11 A3006 RMK A01 T02820110  RH  034%=      5-min Rain = 0
KHA2 171913Z 13010KT 28/11 A3006 RMK A01 T02830112  RH  035%=      5-min Rain = 0
KHA2 171914Z 13010KT 28/11 A3006 RMK A01 T02840108  RH  033%=      5-min Rain = 0
KHA2 171915Z 13006KT 28/11 A3006 RMK A01 T02830109  RH  034%=      5-min Rain = 0
KHA2 171916Z 13007KT 28/11 A3005 RMK A01 T02810113  RH  035%=      5-min Rain = 0
KHA2 171917Z 13009KT 28/12 A3005 RMK A01 T02840116  RH  035%=      5-min Rain = 0
KHA2 171918Z 13010KT 28/11 A3005 RMK A01 T02840113  RH  035%=      5-min Rain = 0
KHA2 171919Z 11009KT 28/11 A3005 RMK A01 T02820114  RH  035%=      5-min Rain = 0
KHA2 171920Z 10007KT 28/11 A3005 RMK A01 T02810114  RH  036%=      5-min Rain = 0
KHA2 171921Z 12007KT 28/12 A3005 RMK A01 T02790115  RH  036%=      5-min Rain = 0
KHA2 171922Z 16008KT 28/11 A3005 RMK A01 T02790108  RH  034%=      5-min Rain = 0
KHA2 171923Z 16012KT 28/11 A3005 RMK A01 T02820107  RH  034%=      5-min Rain = 0
KHA2 171924Z 16010KT 28/10 A3005 RMK A01 T02840103  RH  032%=      5-min Rain = 0
KHA2 171925Z 16011KT 29/10 A3005 RMK A01 T02860104  RH  032%=      5-min Rain = 0
KHA2 171926Z 18010KT 29/10 A3005 RMK A01 T02860104  RH  032%=      5-min Rain = 0
KHA2 171927Z 17012KT 29/10 A3005 RMK A01 T02870102  RH  032%=      5-min Rain = 0
KHA2 171928Z 17011KT 28/10 A3005 RMK A01 T02840104  RH  033%=      5-min Rain = 0
KHA2 171929Z 18007KT 28/11 A3005 RMK A01 T02810107  RH  034%=      5-min Rain = 0
KHA2 171930Z 20007KT 28/10 A3005 RMK A01 T02810104  RH  033%=      5-min Rain = 0
KHA2 171931Z 19006KT 29/10 A3005 RMK A01 T02860102  RH  032%=      5-min Rain = 0
KHA2 171932Z 12007KT 29/11 A3005 RMK A01 T02870109  RH  033%=      5-min Rain = 0
KHA2 171933Z 13007KT 29/11 A3005 RMK A01 T02850109  RH  033%=      5-min Rain = 0
KHA2 171934Z 12004KT 28/10 A3005 RMK A01 T02800102  RH  033%=      5-min Rain = 0
KHA2 171935Z 12004KT 28/11 A3005 RMK A01 T02790105  RH  034%=      5-min Rain = 0
KHA2 171936Z 10002KT 28/11 A3005 RMK A01 T02780105  RH  034%=      5-min Rain = 0
KHA2 171937Z 19005KT 28/10 A3005 RMK A01 T02780103  RH  033%=      5-min Rain = 0
KHA2 171938Z 17008KT 28/11 A3005 RMK A01 T02810105  RH  033%=      5-min Rain = 0
KHA2 171939Z 19008KT 28/10 A3005 RMK A01 T02810104  RH  033%=      5-min Rain = 0
KHA2 171940Z 20009KT 29/10 A3005 RMK A01 T02850103  RH  032%=      5-min Rain = 0
KHA2 171941Z 20008KT 29/10 A3005 RMK A01 T02860102  RH  032%=      5-min Rain = 0
KHA2 171942Z 21006KT 29/09 A3005 RMK A01 T02900094  RH  029%=      5-min Rain = 0
KHA2 171943Z 22004KT 29/09 A3005 RMK A01 T02890087  RH  028%=      5-min Rain = 0
KHA2 171944Z 27002KT 28/08 A3005 RMK A01 T02840084  RH  028%=      5-min Rain = 0
KHA2 171945Z 22002G9KT 28/09 A3005 RMK A01 T02840087  RH  029%=      5-min Rain = 0
KHA2 171946Z 18009KT 28/09 A3005 RMK A01 T02840089  RH  029%=      5-min Rain = 0
KHA2 171947Z 20010KT 29/09 A3005 RMK A01 T02850094  RH  030%=      5-min Rain = 0
KHA2 171948Z 18009KT 29/10 A3005 RMK A01 T02940099  RH  030%=      5-min Rain = 0
KHA2 171949Z 21008KT 29/10 A3005 RMK A01 T02940096  RH  029%=      5-min Rain = 0
KHA2 171950Z 22007KT 30/09 A3004 RMK A01 T02950088  RH  028%=      5-min Rain = 0
KHA2 171951Z 21005KT 29/09 A3004 RMK A01 T02940094  RH  029%=      5-min Rain = 0
KHA2 171952Z 17009KT 30/10 A3004 RMK A01 T02960100  RH  030%=      5-min Rain = 0
KHA2 171953Z 16008KT 30/10 A3004 RMK A01 T02950100  RH  030%=      5-min Rain = 0
KHA2 171954Z 15006KT 29/10 A3004 RMK A01 T02900099  RH  030%=      5-min Rain = 0
KHA2 171955Z 13007KT 29/10 A3004 RMK A01 T02880103  RH  032%=      5-min Rain = 0
KHA2 171956Z 08004KT 29/10 A3004 RMK A01 T02870098  RH  031%=      5-min Rain = 0
KHA2 171957Z 04002KT 28/10 A3004 RMK A01 T02840096  RH  031%=      5-min Rain = 0
KHA2 171958Z 17003G9KT 28/10 A3004 RMK A01 T02820096  RH  031%=      5-min Rain = 0
KHA2 171959Z 14010KT 29/11 A3004 RMK A01 T02850105  RH  033%=      5-min Rain = 0
KHA2 172000Z 13009KT 29/10 A3004 RMK A01 T02870099  RH  031%=      5-min Rain = 0
KHA2 172001Z 12007KT 29/10 A3004 RMK A01 T02860098  RH  031%=      5-min Rain = 0
KHA2 172002Z 14009KT 28/10 A3004 RMK A01 T02840098  RH  031%=      5-min Rain = 0
KHA2 172003Z 16010KT 29/11 A3004 RMK A01 T02890108  RH  032%=      5-min Rain = 0
KHA2 172004Z 18011KT 30/10 A3004 RMK A01 T02960104  RH  030%=      5-min Rain = 0
KHA2 172005Z 19011KT 30/10 A3004 RMK A01 T02950099  RH  030%=      5-min Rain = 0
KHA2 172006Z 18009KT 29/10 A3004 RMK A01 T02930096  RH  029%=      5-min Rain = 0
KHA2 172007Z 19013KT 29/10 A3004 RMK A01 T02930102  RH  030%=      5-min Rain = 0
KHA2 172008Z 19009KT 30/10 A3004 RMK A01 T02960096  RH  029%=      5-min Rain = 0
KHA2 172009Z 16008KT 29/10 A3004 RMK A01 T02940099  RH  030%=      5-min Rain = 0
KHA2 172010Z 15009KT 29/10 A3004 RMK A01 T02940100  RH  030%=      5-min Rain = 0
KHA2 172011Z 16008G13KT 29/10 A3004 RMK A01 T02930097  RH  030%=      5-min Rain = 0
KHA2 172012Z 17007KT 29/10 A3004 RMK A01 T02900103  RH  031%=      5-min Rain = 0
KHA2 172013Z 15005KT 29/10 A3004 RMK A01 T02900095  RH  030%=      5-min Rain = 0
KHA2 172014Z 12006KT 29/10 A3004 RMK A01 T02880096  RH  030%=      5-min Rain = 0
KHA2 172015Z 10005KT 29/10 A3003 RMK A01 T02880101  RH  031%=      5-min Rain = 0
KHA2 172016Z 11009KT 29/11 A3003 RMK A01 T02890109  RH  033%=      5-min Rain = 0
KHA2 172017Z 16007KT 29/10 A3003 RMK A01 T02920100  RH  030%=      5-min Rain = 0
KHA2 172018Z 15010KT 29/10 A3003 RMK A01 T02940100  RH  030%=      5-min Rain = 0
KHA2 172019Z 15011KT 30/10 A3003 RMK A01 T02950099  RH  030%=      5-min Rain = 0
KHA2 172020Z 15012KT 30/10 A3003 RMK A01 T02950096  RH  029%=      5-min Rain = 0
KHA2 172021Z 15009KT 29/10 A3003 RMK A01 T02920095  RH  029%=      5-min Rain = 0
KHA2 172022Z 13010KT 29/10 A3003 RMK A01 T02920095  RH  029%=      5-min Rain = 0
KHA2 172023Z 10007KT 29/09 A3003 RMK A01 T02890094  RH  029%=      5-min Rain = 0
KHA2 172024Z 08006KT 29/10 A3003 RMK A01 T02870096  RH  031%=      5-min Rain = 0
KHA2 172025Z 12004KT 29/10 A3003 RMK A01 T02850101  RH  032%=      5-min Rain = 0
KHA2 172026Z 16010KT 29/10 A3003 RMK A01 T02870101  RH  031%=      5-min Rain = 0
KHA2 172027Z 17010KT 29/10 A3003 RMK A01 T02920101  RH  030%=      5-min Rain = 0
KHA2 172028Z 13009KT 29/09 A3003 RMK A01 T02910092  RH  029%=      5-min Rain = 0
KHA2 172029Z 12004KT 29/09 A3003 RMK A01 T02870090  RH  029%=      5-min Rain = 0
KHA2 172030Z 08002KT 29/09 A3003 RMK A01 T02850091  RH  030%=      5-min Rain = 0
KHA2 172031Z 18004KT 29/10 A3003 RMK A01 T02850096  RH  031%=      5-min Rain = 0
KHA2 172032Z 18005KT 29/10 A3003 RMK A01 T02890095  RH  030%=      5-min Rain = 0
KHA2 172033Z 19003KT 29/09 A3003 RMK A01 T02900094  RH  029%=      5-min Rain = 0
KHA2 172034Z 16004KT 29/09 A3003 RMK A01 T02890094  RH  029%=      5-min Rain = 0
KHA2 172035Z 16006G12KT 29/10 A3003 RMK A01 T02890095  RH  030%=      5-min Rain = 0
KHA2 172036Z 13012KT 29/10 A3003 RMK A01 T02910097  RH  030%=      5-min Rain = 0
KHA2 172037Z 13012KT 29/09 A3003 RMK A01 T02930091  RH  028%=      5-min Rain = 0
KHA2 172038Z 12011KT 29/10 A3003 RMK A01 T02900095  RH  029%=      5-min Rain = 0
KHA2 172039Z 16010KT 29/10 A3003 RMK A01 T02910095  RH  029%=      5-min Rain = 0
KHA2 172040Z 17012G17KT 29/09 A3003 RMK A01 T02930092  RH  029%=      5-min Rain = 0
KHA2 172041Z 15008KT 29/09 A3003 RMK A01 T02930092  RH  028%=      5-min Rain = 0
KHA2 172042Z 16006KT 29/09 A3003 RMK A01 T02940093  RH  029%=      5-min Rain = 0
KHA2 172043Z 17007G12KT 30/09 A3002 RMK A01 T02950089  RH  028%=      5-min Rain = 0
KHA2 172044Z 16009KT 30/10 A3002 RMK A01 T02950095  RH  029%=      5-min Rain = 0
KHA2 172045Z 15008KT 30/10 A3002 RMK A01 T02960095  RH  029%=      5-min Rain = 0
KHA2 172046Z 13010KT 30/09 A3002 RMK A01 T02950087  RH  027%=      5-min Rain = 0
KHA2 172047Z 14006KT 29/09 A3002 RMK A01 T02910087  RH  028%=      5-min Rain = 0
KHA2 172048Z 15008KT 29/09 A3002 RMK A01 T02920093  RH  029%=      5-min Rain = 0
KHA2 172049Z 14007KT 29/08 A3002 RMK A01 T02930084  RH  027%=      5-min Rain = 0
KHA2 172050Z 15008G13KT 29/08 A3002 RMK A01 T02900084  RH  028%=      5-min Rain = 0
KHA2 172051Z 13011KT 29/09 A3002 RMK A01 T02900089  RH  029%=      5-min Rain = 0
KHA2 172052Z 12006KT 29/09 A3002 RMK A01 T02910085  RH  028%=      5-min Rain = 0
KHA2 172053Z 13004KT 29/08 A3002 RMK A01 T02900084  RH  028%=      5-min Rain = 0
KHA2 172054Z 14010G16KT 29/09 A3002 RMK A01 T02900090  RH  029%=      5-min Rain = 0
KHA2 172055Z 14013KT 29/09 A3002 RMK A01 T02920088  RH  028%=      5-min Rain = 0
KHA2 172056Z 16013KT 29/09 A3002 RMK A01 T02930092  RH  029%=      5-min Rain = 0
KHA2 172057Z 19011KT 30/09 A3002 RMK A01 T02950090  RH  028%=      5-min Rain = 0
KHA2 172058Z 17011KT 30/09 A3002 RMK A01 T02960089  RH  028%=      5-min Rain = 0
KHA2 172059Z 16012KT 30/09 A3002 RMK A01 T02960091  RH  028%=      5-min Rain = 0
KHA2 172100Z 14010KT 30/09 A3002 RMK A01 T02970092  RH  028%=      5-min Rain = 0
KHA2 172101Z 13010KT 30/09 A3002 RMK A01 T02980091  RH  027%=      5-min Rain = 0
KHA2 172102Z 13008KT 30/09 A3002 RMK A01 T02970093  RH  028%=      5-min Rain = 0
KHA2 172103Z 14009KT 30/10 A3002 RMK A01 T02980096  RH  028%=      5-min Rain = 0
KHA2 172104Z 16009KT 30/09 A3002 RMK A01 T02970086  RH  027%=      5-min Rain = 0
KHA2 172105Z 16007KT 29/09 A3002 RMK A01 T02940087  RH  027%=      5-min Rain = 0
KHA2 172106Z 16011KT 29/09 A3002 RMK A01 T02940090  RH  028%=      5-min Rain = 0
KHA2 172107Z 15008KT 30/09 A3002 RMK A01 T02950088  RH  028%=      5-min Rain = 0
KHA2 172108Z 14008KT 30/09 A3002 RMK A01 T02950090  RH  028%=      5-min Rain = 0
KHA2 172109Z 15007KT 29/09 A3002 RMK A01 T02940087  RH  027%=      5-min Rain = 0
KHA2 172110Z 15007KT 29/09 A3002 RMK A01 T02940089  RH  028%=      5-min Rain = 0
KHA2 172111Z 17010KT 30/09 A3001 RMK A01 T02950090  RH  028%=      5-min Rain = 0
KHA2 172112Z 19013KT 30/09 A3002 RMK A01 T02970093  RH  028%=      5-min Rain = 0
KHA2 172113Z 20010KT 30/09 A3002 RMK A01 T02970091  RH  028%=      5-min Rain = 0
KHA2 172114Z 20007KT 30/09 A3002 RMK A01 T02970090  RH  028%=      5-min Rain = 0
KHA2 172115Z 20008KT 30/09 A3002 RMK A01 T03010090  RH  027%=      5-min Rain = 0
KHA2 172116Z 20005KT 30/09 A3002 RMK A01 T03000086  RH  026%=      5-min Rain = 0
KHA2 172117Z 18005KT 30/09 A3002 RMK A01 T02960090  RH  028%=      5-min Rain = 0
KHA2 172118Z 14011KT 30/09 A3002 RMK A01 T02950094  RH  029%=      5-min Rain = 0
KHA2 172119Z 16012KT 30/09 A3002 RMK A01 T02950091  RH  028%=      5-min Rain = 0
KHA2 172120Z 18012KT 30/09 A3001 RMK A01 T02950091  RH  028%=      5-min Rain = 0
KHA2 172121Z 18012KT 30/09 A3001 RMK A01 T02950091  RH  028%=      5-min Rain = 0
KHA2 172122Z 17013KT 29/09 A3001 RMK A01 T02940094  RH  029%=      5-min Rain = 0
KHA2 172123Z 17010KT 29/09 A3001 RMK A01 T02920094  RH  029%=      5-min Rain = 0
KHA2 172124Z 16009KT 29/09 A3001 RMK A01 T02900094  RH  030%=      5-min Rain = 0
KHA2 172125Z 18007KT 29/09 A3001 RMK A01 T02880092  RH  029%=      5-min Rain = 0
KHA2 172126Z 16004KT 29/09 A3001 RMK A01 T02870093  RH  030%=      5-min Rain = 0
KHA2 172127Z 19003KT 29/09 A3001 RMK A01 T02860091  RH  030%=      5-min Rain = 0
KHA2 172128Z 16007KT 29/09 A3001 RMK A01 T02870094  RH  030%=      5-min Rain = 0
KHA2 172129Z 13009KT 29/10 A3001 RMK A01 T02890095  RH  030%=      5-min Rain = 0
KHA2 172130Z 14011KT 29/09 A3001 RMK A01 T02900093  RH  029%=      5-min Rain = 0
KHA2 172131Z 15011KT 29/09 A3001 RMK A01 T02900091  RH  029%=      5-min Rain = 0
KHA2 172132Z 14008KT 29/09 A3001 RMK A01 T02880091  RH  029%=      5-min Rain = 0
KHA2 172133Z 15011KT 29/09 A3001 RMK A01 T02870092  RH  030%=      5-min Rain = 0
KHA2 172134Z 14009KT 29/09 A3001 RMK A01 T02880086  RH  028%=      5-min Rain = 0
KHA2 172135Z 14010KT 29/09 A3001 RMK A01 T02870085  RH  028%=      5-min Rain = 0
KHA2 172136Z 15012KT 29/09 A3001 RMK A01 T02870087  RH  029%=      5-min Rain = 0
KHA2 172137Z 16011KT 29/09 A3001 RMK A01 T02880088  RH  029%=      5-min Rain = 0
KHA2 172138Z 16010KT 29/09 A3001 RMK A01 T02880086  RH  028%=      5-min Rain = 0
KHA2 172139Z 15009KT 29/09 A3001 RMK A01 T02860086  RH  028%=      5-min Rain = 0
KHA2 172140Z 15010G17KT 29/09 A30 RMK A01 T02860085  RH  028%=      5-min Rain = 0
KHA2 172141Z 13013KT 29/09 A30 RMK A01 T02860088  RH  029%=      5-min Rain = 0
KHA2 172142Z 14011KT 29/09 A30 RMK A01 T02860088  RH  029%=      5-min Rain = 0
KHA2 172143Z 13011KT 29/09 A30 RMK A01 T02860088  RH  029%=      5-min Rain = 0
KHA2 172144Z 13015KT 29/09 A30 RMK A01 T02860088  RH  029%=      5-min Rain = 0
KHA2 172145Z 14013KT 29/09 A30 RMK A01 T02860087  RH  029%=      5-min Rain = 0
KHA2 172146Z 13012KT 29/09 A30 RMK A01 T02860087  RH  029%=      5-min Rain = 0
KHA2 172147Z 14014KT 29/09 A30 RMK A01 T02860086  RH  029%=      5-min Rain = 0
KHA2 172148Z 15014KT 29/09 A30 RMK A01 T02860085  RH  028%=      5-min Rain = 0
KHA2 172149Z 14014KT 29/09 A30 RMK A01 T02860087  RH  029%=      5-min Rain = 0
KHA2 172150Z 14012KT 29/09 A30 RMK A01 T02860088  RH  029%=      5-min Rain = 0
KHA2 172151Z 14010KT 29/09 A30 RMK A01 T02860085  RH  028%=      5-min Rain = 0
KHA2 172152Z 14010KT 29/09 A30 RMK A01 T02850086  RH  029%=      5-min Rain = 0
KHA2 172153Z 14011KT 29/09 A30 RMK A01 T02850090  RH  029%=      5-min Rain = 0
KHA2 172154Z 13012KT 29/09 A30 RMK A01 T02870091  RH  029%=      5-min Rain = 0
KHA2 172155Z 14014KT 29/09 A30 RMK A01 T02880092  RH  029%=      5-min Rain = 0
KHA2 172156Z 14012KT 29/09 A30 RMK A01 T02880091  RH  029%=      5-min Rain = 0
KHA2 172157Z 15011KT 29/09 A30 RMK A01 T02870091  RH  029%=      5-min Rain = 0
KHA2 172158Z 15011KT 29/09 A30 RMK A01 T02860089  RH  029%=      5-min Rain = 0
KHA2 172159Z 14010KT 29/09 A30 RMK A01 T02860090  RH  029%=      5-min Rain = 0
KHA2 172200Z 14009KT 29/09 A30 RMK A01 T02860091  RH  029%=      5-min Rain = 0
KHA2 172201Z 15013KT 29/09 A30 RMK A01 T02860091  RH  029%=      5-min Rain = 0
KHA2 172202Z 14010KT 29/09 A30 RMK A01 T02860091  RH  029%=      5-min Rain = 0
KHA2 172203Z 14008KT 29/09 A30 RMK A01 T02860091  RH  029%=      5-min Rain = 0
KHA2 172204Z 14010KT 29/09 A30 RMK A01 T02860092  RH  030%=      5-min Rain = 0
KHA2 172205Z 16010KT 29/09 A30 RMK A01 T02860091  RH  030%=      5-min Rain = 0
KHA2 172206Z 14009KT 29/09 A30 RMK A01 T02860092  RH  030%=      5-min Rain = 0
KHA2 172207Z 14009KT 29/10 A30 RMK A01 T02870095  RH  030%=      5-min Rain = 0
KHA2 172208Z 14015KT 29/09 A30 RMK A01 T02880092  RH  029%=      5-min Rain = 0
KHA2 172209Z 15012KT 29/09 A30 RMK A01 T02870087  RH  029%=      5-min Rain = 0
KHA2 172210Z 16012KT 29/09 A30 RMK A01 T02850088  RH  029%=      5-min Rain = 0
KHA2 172211Z 15012KT 29/09 A2999 RMK A01 T02850090  RH  030%=      5-min Rain = 0
KHA2 172212Z 15014KT 28/09 A2999 RMK A01 T02840089  RH  029%=      5-min Rain = 0
KHA2 172213Z 15012KT 28/09 A2999 RMK A01 T02840088  RH  029%=      5-min Rain = 0
KHA2 172214Z 14010KT 28/09 A2999 RMK A01 T02840092  RH  030%=      5-min Rain = 0
KHA2 172215Z 14011KT 28/09 A2999 RMK A01 T02840090  RH  030%=      5-min Rain = 0
KHA2 172216Z 15012KT 28/09 A2999 RMK A01 T02840089  RH  030%=      5-min Rain = 0
KHA2 172217Z 14013KT 28/09 A2999 RMK A01 T02830089  RH  030%=      5-min Rain = 0
KHA2 172218Z 14013KT 28/09 A2999 RMK A01 T02830090  RH  030%=      5-min Rain = 0
KHA2 172219Z 13010KT 28/09 A2999 RMK A01 T02820091  RH  030%=      5-min Rain = 0
KHA2 172220Z 14012KT 28/09 A2999 RMK A01 T02820090  RH  030%=      5-min Rain = 0
KHA2 172221Z 14014KT 28/09 A2999 RMK A01 T02820089  RH  030%=      5-min Rain = 0
KHA2 172222Z 13014KT 28/09 A2999 RMK A01 T02820088  RH  030%=      5-min Rain = 0
KHA2 172223Z 14014KT 28/09 A2999 RMK A01 T02820090  RH  030%=      5-min Rain = 0
KHA2 172224Z 14015KT 28/09 A2999 RMK A01 T02820088  RH  030%=      5-min Rain = 0
KHA2 172225Z 13013KT 28/09 A2999 RMK A01 T02810086  RH  029%=      5-min Rain = 0
KHA2 172226Z 13013KT 28/09 A2999 RMK A01 T02800086  RH  030%=      5-min Rain = 0
KHA2 172227Z 13013KT 28/09 A2999 RMK A01 T02800086  RH  030%=      5-min Rain = 0
KHA2 172228Z 12010KT 28/09 A2999 RMK A01 T02790087  RH  030%=      5-min Rain = 0
KHA2 172229Z 14012KT 28/09 A2999 RMK A01 T02790088  RH  030%=      5-min Rain = 0
KHA2 172230Z 13012KT 28/09 A2999 RMK A01 T02790087  RH  030%=      5-min Rain = 0
KHA2 172231Z 13011KT 28/09 A2999 RMK A01 T02790088  RH  030%=      5-min Rain = 0
KHA2 172232Z 13011KT 28/09 A2999 RMK A01 T02780087  RH  030%=      5-min Rain = 0
KHA2 172233Z 13012KT 28/09 A2999 RMK A01 T02780089  RH  030%=      5-min Rain = 0
KHA2 172234Z 13013KT 28/09 A2999 RMK A01 T02790089  RH  030%=      5-min Rain = 0
KHA2 172235Z 14012KT 28/09 A2999 RMK A01 T02780088  RH  030%=      5-min Rain = 0
KHA2 172236Z 14013KT 28/09 A2999 RMK A01 T02780089  RH  030%=      5-min Rain = 0
KHA2 172237Z 13014KT 28/09 A2999 RMK A01 T02780088  RH  030%=      5-min Rain = 0
KHA2 172238Z 13013KT 28/09 A2999 RMK A01 T02780089  RH  030%=      5-min Rain = 0
KHA2 172239Z 13013KT 28/09 A2999 RMK A01 T02780090  RH  031%=      5-min Rain = 0
KHA2 172240Z 13013G18KT 28/09 A2999 RMK A01 T02780090  RH  031%=      5-min Rain = 0
KHA2 172241Z 13016KT 28/09 A2998 RMK A01 T02780089  RH  030%=      5-min Rain = 0
KHA2 172242Z 14012KT 28/09 A2998 RMK A01 T02780089  RH  031%=      5-min Rain = 0
KHA2 172243Z 14012KT 28/09 A2999 RMK A01 T02780090  RH  031%=      5-min Rain = 0
KHA2 172244Z 15012KT 28/09 A2998 RMK A01 T02780089  RH  031%=      5-min Rain = 0
KHA2 172245Z 14014KT 28/09 A2998 RMK A01 T02780090  RH  031%=      5-min Rain = 0
KHA2 172246Z 15014KT 28/09 A2998 RMK A01 T02780089  RH  031%=      5-min Rain = 0
KHA2 172247Z 15014KT 28/09 A2998 RMK A01 T02770087  RH  030%=      5-min Rain = 0
KHA2 172248Z 15014KT 28/09 A2998 RMK A01 T02780088  RH  030%=      5-min Rain = 0
KHA2 172249Z 15014KT 28/09 A2998 RMK A01 T02770087  RH  030%=      5-min Rain = 0
KHA2 172250Z 15014KT 28/09 A2998 RMK A01 T02770086  RH  030%=      5-min Rain = 0
KHA2 172251Z 14013KT 28/09 A2998 RMK A01 T02770086  RH  030%=      5-min Rain = 0
KHA2 172252Z 14012KT 28/09 A2998 RMK A01 T02770087  RH  030%=      5-min Rain = 0
KHA2 172253Z 15012KT 28/09 A2998 RMK A01 T02770087  RH  030%=      5-min Rain = 0
KHA2 172254Z 15013KT 28/09 A2998 RMK A01 T02770087  RH  030%=      5-min Rain = 0
KHA2 172255Z 15013KT 28/09 A2999 RMK A01 T02770088  RH  031%=      5-min Rain = 0
KHA2 172256Z 14014KT 28/09 A2999 RMK A01 T02770088  RH  030%=      5-min Rain = 0
KHA2 172257Z 14014KT 28/09 A2999 RMK A01 T02760086  RH  030%=      5-min Rain = 0
KHA2 172258Z 14015KT 28/09 A2999 RMK A01 T02770086  RH  030%=      5-min Rain = 0
KHA2 172259Z 14015KT 28/09 A2999 RMK A01 T02760087  RH  030%=      5-min Rain = 0
KHA2 172300Z 14015KT 28/09 A2999 RMK A01 T02760087  RH  030%=      5-min Rain = 0
KHA2 172301Z 14013KT 28/09 A2999 RMK A01 T02760088  RH  031%=      5-min Rain = 0
KHA2 172302Z 14012KT 28/09 A2999 RMK A01 T02760090  RH  031%=      5-min Rain = 0
KHA2 172303Z 15015KT 28/09 A2998 RMK A01 T02760089  RH  031%=      5-min Rain = 0
KHA2 172304Z 14016KT 28/09 A2999 RMK A01 T02760089  RH  031%=      5-min Rain = 0
KHA2 172305Z 15015KT 28/09 A2999 RMK A01 T02760088  RH  031%=      5-min Rain = 0
KHA2 172306Z 15014KT 28/09 A2999 RMK A01 T02760089  RH  031%=      5-min Rain = 0
KHA2 172307Z 15013KT 28/09 A2999 RMK A01 T02750089  RH  031%=      5-min Rain = 0
KHA2 172308Z 14011KT 28/09 A2999 RMK A01 T02750089  RH  031%=      5-min Rain = 0
KHA2 172309Z 14012KT 28/09 A2999 RMK A01 T02750091  RH  031%=      5-min Rain = 0
KHA2 172310Z 14010KT 28/09 A2999 RMK A01 T02750091  RH  031%=      5-min Rain = 0
KHA2 172311Z 15014KT 28/09 A2999 RMK A01 T02750090  RH  031%=      5-min Rain = 0
KHA2 172312Z 14013KT 28/09 A2998 RMK A01 T02750088  RH  031%=      5-min Rain = 0
KHA2 172313Z 14013KT 28/09 A2998 RMK A01 T02750088  RH  031%=      5-min Rain = 0
KHA2 172314Z 14013KT 28/09 A2998 RMK A01 T02750089  RH  031%=      5-min Rain = 0
KHA2 172315Z 14015KT 28/09 A2998 RMK A01 T02750090  RH  031%=      5-min Rain = 0
KHA2 172316Z 15015KT 28/09 A2998 RMK A01 T02750089  RH  031%=      5-min Rain = 0
KHA2 172317Z 14014KT 28/09 A2998 RMK A01 T02760089  RH  031%=      5-min Rain = 0
KHA2 172318Z 14014KT 28/09 A2998 RMK A01 T02750089  RH  031%=      5-min Rain = 0
KHA2 172319Z 14015KT 28/09 A2998 RMK A01 T02750090  RH  031%=      5-min Rain = 0
KHA2 172320Z 14015KT 28/09 A2998 RMK A01 T02750089  RH  031%=      5-min Rain = 0
KHA2 172321Z 15015KT 28/09 A2998 RMK A01 T02750089  RH  031%=      5-min Rain = 0
KHA2 172322Z 14012KT 27/09 A2998 RMK A01 T02740090  RH  031%=      5-min Rain = 0
KHA2 172323Z 14014KT 27/09 A2998 RMK A01 T02740090  RH  031%=      5-min Rain = 0
KHA2 172324Z 13016KT 27/09 A2998 RMK A01 T02740088  RH  031%=      5-min Rain = 0
KHA2 172325Z 14016KT 28/09 A2997 RMK A01 T02750088  RH  031%=      5-min Rain = 0
KHA2 172326Z 13014KT 27/09 A2997 RMK A01 T02740088  RH  031%=      5-min Rain = 0
KHA2 172327Z 13013KT 27/09 A2997 RMK A01 T02740090  RH  031%=      5-min Rain = 0
KHA2 172328Z 14015KT 28/09 A2997 RMK A01 T02750091  RH  032%=      5-min Rain = 0
KHA2 172329Z 13015KT 27/09 A2997 RMK A01 T02740089  RH  031%=      5-min Rain = 0
KHA2 172330Z 13014KT 27/09 A2997 RMK A01 T02740090  RH  031%=      5-min Rain = 0
KHA2 172331Z 13012KT 27/09 A2997 RMK A01 T02740092  RH  032%=      5-min Rain = 0
KHA2 172332Z 13014KT 28/09 A2997 RMK A01 T02750091  RH  032%=      5-min Rain = 0
KHA2 172333Z 13015KT 28/09 A2997 RMK A01 T02750090  RH  031%=      5-min Rain = 0
KHA2 172334Z 13014KT 28/09 A2997 RMK A01 T02750092  RH  032%=      5-min Rain = 0
KHA2 172335Z 13014KT 28/09 A2997 RMK A01 T02750091  RH  032%=      5-min Rain = 0
KHA2 172336Z 13015KT 28/09 A2997 RMK A01 T02750090  RH  031%=      5-min Rain = 0
KHA2 172337Z 13014KT 28/09 A2997 RMK A01 T02750090  RH  031%=      5-min Rain = 0
KHA2 172338Z 14013KT 28/09 A2997 RMK A01 T02750091  RH  031%=      5-min Rain = 0
KHA2 172339Z 14011KT 28/09 A2997 RMK A01 T02750093  RH  032%=      5-min Rain = 0
KHA2 172340Z 13012KT 28/09 A2997 RMK A01 T02750094  RH  032%=      5-min Rain = 0
KHA2 172341Z 13013KT 28/09 A2997 RMK A01 T02750094  RH  032%=      5-min Rain = 0
KHA2 172342Z 13012KT 28/09 A2997 RMK A01 T02750094  RH  032%=      5-min Rain = 0
KHA2 172343Z 13015KT 27/10 A2997 RMK A01 T02740095  RH  032%=      5-min Rain = 0
KHA2 172344Z 13014KT 27/09 A2997 RMK A01 T02740093  RH  032%=      5-min Rain = 0
KHA2 172345Z 13013KT 27/10 A2997 RMK A01 T02740096  RH  033%=      5-min Rain = 0
KHA2 172346Z 13013KT 27/10 A2997 RMK A01 T02730096  RH  033%=      5-min Rain = 0
KHA2 172347Z 13012KT 27/10 A2997 RMK A01 T02730097  RH  033%=      5-min Rain = 0
KHA2 172348Z 13015KT 27/10 A2997 RMK A01 T02730095  RH  033%=      5-min Rain = 0
KHA2 172349Z 13014KT 27/10 A2997 RMK A01 T02730095  RH  033%=      5-min Rain = 0
KHA2 172350Z 13013KT 27/10 A2997 RMK A01 T02720095  RH  033%=      5-min Rain = 0
KHA2 172351Z 13013KT 27/10 A2997 RMK A01 T02720095  RH  033%=      5-min Rain = 0
KHA2 172352Z 13013KT 27/10 A2997 RMK A01 T02720095  RH  033%=      5-min Rain = 0
KHA2 172353Z 13013KT 27/10 A2997 RMK A01 T02710095  RH  033%=      5-min Rain = 0
KHA2 172354Z 13013KT 27/10 A2997 RMK A01 T02710096  RH  033%=      5-min Rain = 0
KHA2 172355Z 14013KT 27/10 A2997 RMK A01 T02710095  RH  033%=      5-min Rain = 0
KHA2 172356Z 13013KT 27/10 A2997 RMK A01 T02710096  RH  033%=      5-min Rain = 0
KHA2 172357Z 14013KT 27/10 A2997 RMK A01 T02700095  RH  033%=      5-min Rain = 0
KHA2 172358Z 13012KT 27/09 A2997 RMK A01 T02700094  RH  033%=      5-min Rain = 0
KHA2 172359Z 14013KT 27/10 A2997 RMK A01 T02700096  RH  033%=      5-min Rain = 0
KHA2 180000Z 14015KT 27/09 A2997 RMK A01 T02690094  RH  033%=      5-min Rain = 0
KHA2 180001Z 14013KT 27/09 A2997 RMK A01 T02690094  RH  033%=      5-min Rain = 0
KHA2 180002Z 14014KT 27/09 A2997 RMK A01 T02680093  RH  033%=      5-min Rain = 0
KHA2 180003Z 14012KT 27/09 A2997 RMK A01 T02680094  RH  033%=      5-min Rain = 0
KHA2 180004Z 13012KT 27/09 A2997 RMK A01 T02680094  RH  033%=      5-min Rain = 0
KHA2 180005Z 13012KT 27/09 A2997 RMK A01 T02680094  RH  034%=      5-min Rain = 0
KHA2 180006Z 13015KT 27/09 A2997 RMK A01 T02670092  RH  033%=      5-min Rain = 0
KHA2 180007Z 13014KT 27/09 A2997 RMK A01 T02670092  RH  033%=      5-min Rain = 0
KHA2 180008Z 13012G17KT 27/09 A2997 RMK A01 T02670093  RH  033%=      5-min Rain = 0
KHA2 180009Z 13013KT 27/09 A2997 RMK A01 T02660093  RH  033%=      5-min Rain = 0
KHA2 180010Z 13015KT 27/09 A2996 RMK A01 T02660093  RH  034%=      5-min Rain = 0
KHA2 180011Z 13014KT 27/09 A2996 RMK A01 T02650091  RH  033%=      5-min Rain = 0
KHA2 180012Z 13013KT 27/09 A2996 RMK A01 T02650092  RH  034%=      5-min Rain = 0
KHA2 180013Z 13016KT 27/09 A2996 RMK A01 T02650092  RH  034%=      5-min Rain = 0
KHA2 180014Z 13016KT 26/09 A2996 RMK A01 T02640091  RH  033%=      5-min Rain = 0
KHA2 180015Z 13014KT 26/09 A2996 RMK A01 T02640092  RH  034%=      5-min Rain = 0
KHA2 180016Z 12015KT 26/09 A2995 RMK A01 T02640092  RH  034%=      5-min Rain = 0
KHA2 180017Z 13014KT 26/09 A2995 RMK A01 T02630092  RH  034%=      5-min Rain = 0
KHA2 180018Z 13015KT 26/09 A2996 RMK A01 T02630093  RH  034%=      5-min Rain = 0
KHA2 180019Z 13013KT 26/09 A2996 RMK A01 T02630092  RH  034%=      5-min Rain = 0
KHA2 180020Z 13013KT 26/09 A2996 RMK A01 T02620093  RH  034%=      5-min Rain = 0
KHA2 180021Z 12013KT 26/09 A2996 RMK A01 T02620093  RH  034%=      5-min Rain = 0
KHA2 180022Z 13011KT 26/09 A2995 RMK A01 T02610094  RH  035%=      5-min Rain = 0
KHA2 180023Z 12012KT 26/09 A2995 RMK A01 T02610094  RH  035%=      5-min Rain = 0
KHA2 180024Z 13012KT 26/09 A2995 RMK A01 T02600093  RH  035%=      5-min Rain = 0
KHA2 180025Z 12016KT 26/09 A2995 RMK A01 T02600093  RH  035%=      5-min Rain = 0
KHA2 180026Z 12015KT 26/09 A2995 RMK A01 T02600091  RH  034%=      5-min Rain = 0
KHA2 180027Z 13015KT 26/09 A2995 RMK A01 T02600091  RH  034%=      5-min Rain = 0
KHA2 180028Z 12012KT 26/09 A2995 RMK A01 T02600091  RH  034%=      5-min Rain = 0
KHA2 180029Z 13014KT 26/09 A2995 RMK A01 T02600091  RH  035%=      5-min Rain = 0
KHA2 180030Z 12015KT 26/09 A2995 RMK A01 T02590091  RH  035%=      5-min Rain = 0
KHA2 180031Z 13015KT 26/09 A2995 RMK A01 T02590090  RH  034%=      5-min Rain = 0
KHA2 180032Z 12013KT 26/09 A2995 RMK A01 T02590091  RH  034%=      5-min Rain = 0
KHA2 180033Z 12012KT 26/09 A2995 RMK A01 T02590091  RH  035%=      5-min Rain = 0
KHA2 180034Z 12011KT 26/09 A2995 RMK A01 T02580092  RH  035%=      5-min Rain = 0
KHA2 180035Z 12012KT 26/09 A2995 RMK A01 T02580092  RH  035%=      5-min Rain = 0
KHA2 180036Z 12013KT 26/09 A2995 RMK A01 T02570092  RH  035%=      5-min Rain = 0
KHA2 180037Z 12013KT 26/09 A2995 RMK A01 T02570092  RH  035%=      5-min Rain = 0
KHA2 180038Z 12015KT 26/09 A2995 RMK A01 T02570093  RH  035%=      5-min Rain = 0
KHA2 180039Z 13015KT 26/09 A2996 RMK A01 T02560092  RH  035%=      5-min Rain = 0
KHA2 180040Z 12014KT 26/09 A2996 RMK A01 T02560092  RH  035%=      5-min Rain = 0
KHA2 180041Z 12012KT 26/09 A2996 RMK A01 T02560093  RH  036%=      5-min Rain = 0
KHA2 180042Z 12013KT 26/09 A2995 RMK A01 T02550093  RH  036%=      5-min Rain = 0
KHA2 180043Z 12013KT 26/09 A2995 RMK A01 T02550093  RH  036%=      5-min Rain = 0
KHA2 180044Z 12012KT 25/09 A2996 RMK A01 T02540094  RH  036%=      5-min Rain = 0
KHA2 180045Z 13012KT 25/09 A2995 RMK A01 T02540094  RH  036%=      5-min Rain = 0
KHA2 180046Z 12012KT 25/09 A2995 RMK A01 T02530094  RH  037%=      5-min Rain = 0
KHA2 180047Z 12013KT 25/09 A2995 RMK A01 T02520094  RH  037%=      5-min Rain = 0
KHA2 180048Z 13013KT 25/09 A2995 RMK A01 T02520094  RH  037%=      5-min Rain = 0
KHA2 180049Z 13012KT 25/10 A2995 RMK A01 T02520095  RH  037%=      5-min Rain = 0
KHA2 180050Z 12012KT 25/10 A2995 RMK A01 T02510096  RH  037%=      5-min Rain = 0
KHA2 180051Z 12014KT 25/10 A2995 RMK A01 T02500095  RH  038%=      5-min Rain = 0
KHA2 180052Z 12013KT 25/10 A2995 RMK A01 T02500095  RH  037%=      5-min Rain = 0
KHA2 180053Z 12013KT 25/10 A2995 RMK A01 T02500095  RH  037%=      5-min Rain = 0
KHA2 180054Z 12013KT 25/09 A2995 RMK A01 T02500094  RH  037%=      5-min Rain = 0
KHA2 180055Z 13014KT 25/09 A2995 RMK A01 T02500094  RH  037%=      5-min Rain = 0
KHA2 180056Z 13013KT 25/09 A2995 RMK A01 T02500094  RH  037%=      5-min Rain = 0
KHA2 180057Z 13014KT 25/10 A2995 RMK A01 T02490095  RH  037%=      5-min Rain = 0
KHA2 180058Z 13015KT 25/09 A2995 RMK A01 T02490094  RH  037%=      5-min Rain = 0
KHA2 180059Z 12015KT 25/09 A2995 RMK A01 T02490094  RH  037%=      5-min Rain = 0
KHA2 180100Z 13015KT 25/09 A2995 RMK A01 T02480094  RH  038%=      5-min Rain = 0
KHA2 180101Z 12014KT 25/09 A2995 RMK A01 T02480094  RH  038%=      5-min Rain = 0
KHA2 180102Z 13014KT 25/09 A2995 RMK A01 T02470093  RH  038%=      5-min Rain = 0
KHA2 180103Z 13013KT 25/09 A2995 RMK A01 T02470094  RH  038%=      5-min Rain = 0
KHA2 180104Z 13014KT 25/09 A2995 RMK A01 T02470093  RH  038%=      5-min Rain = 0
KHA2 180105Z 13013KT 25/09 A2995 RMK A01 T02470093  RH  038%=      5-min Rain = 0
KHA2 180106Z 13013KT 25/09 A2995 RMK A01 T02470093  RH  038%=      5-min Rain = 0
KHA2 180107Z 13012KT 25/09 A2995 RMK A01 T02460093  RH  038%=      5-min Rain = 0
KHA2 180108Z 13013KT 25/09 A2996 RMK A01 T02460094  RH  038%=      5-min Rain = 0
KHA2 180109Z 13013KT 25/09 A2996 RMK A01 T02450093  RH  038%=      5-min Rain = 0
KHA2 180110Z 13012KT 25/09 A2996 RMK A01 T02450094  RH  038%=      5-min Rain = 0
KHA2 180111Z 13014KT 25/10 A2996 RMK A01 T02450095  RH  039%=      5-min Rain = 0
KHA2 180112Z 13013KT 25/10 A2997 RMK A01 T02450096  RH  039%=      5-min Rain = 0
KHA2 180113Z 13012KT 25/10 A2997 RMK A01 T02450097  RH  039%=      5-min Rain = 0
KHA2 180114Z 13013KT 25/10 A2997 RMK A01 T02450098  RH  039%=      5-min Rain = 0
KHA2 180115Z 13012KT 25/10 A2997 RMK A01 T02450100  RH  040%=      5-min Rain = 0
KHA2 180116Z 13013KT 24/10 A2997 RMK A01 T02440101  RH  040%=      5-min Rain = 0
KHA2 180117Z 13011KT 24/10 A2997 RMK A01 T02440102  RH  041%=      5-min Rain = 0
KHA2 180118Z 13013KT 24/10 A2998 RMK A01 T02440102  RH  041%=      5-min Rain = 0
KHA2 180119Z 13011KT 24/10 A2998 RMK A01 T02440103  RH  041%=      5-min Rain = 0
KHA2 180120Z 13010KT 24/10 A2998 RMK A01 T02430104  RH  041%=      5-min Rain = 0
KHA2 180121Z 13010KT 24/10 A2998 RMK A01 T02430104  RH  041%=      5-min Rain = 0
KHA2 180122Z 13010KT 24/10 A2998 RMK A01 T02430104  RH  042%=      5-min Rain = 0
KHA2 180123Z 13010KT 24/11 A2998 RMK A01 T02430105  RH  042%=      5-min Rain = 0
KHA2 180124Z 13009KT 24/11 A2998 RMK A01 T02430106  RH  042%=      5-min Rain = 0
KHA2 180125Z 13009KT 24/11 A2998 RMK A01 T02420106  RH  042%=      5-min Rain = 0
KHA2 180126Z 13009KT 24/11 A2998 RMK A01 T02410106  RH  043%=      5-min Rain = 0
KHA2 180127Z 14009KT 24/11 A2998 RMK A01 T02400107  RH  043%=      5-min Rain = 0
KHA2 180128Z 14009KT 24/11 A2998 RMK A01 T02390107  RH  043%=      5-min Rain = 0
KHA2 180129Z 14008KT 24/11 A2998 RMK A01 T02380107  RH  043%=      5-min Rain = 0
KHA2 180130Z 14009KT 24/11 A2998 RMK A01 T02380107  RH  044%=      5-min Rain = 0
KHA2 180131Z 14008KT 24/11 A2998 RMK A01 T02370107  RH  044%=      5-min Rain = 0
KHA2 180132Z 14008KT 24/11 A2998 RMK A01 T02370107  RH  044%=      5-min Rain = 0
KHA2 180133Z 14009KT 24/11 A2998 RMK A01 T02370107  RH  044%=      5-min Rain = 0
KHA2 180134Z 13008KT 24/11 A2998 RMK A01 T02370107  RH  044%=      5-min Rain = 0
KHA2 180135Z 14008KT 24/11 A2998 RMK A01 T02370107  RH  044%=      5-min Rain = 0
KHA2 180136Z 14008KT 24/11 A2998 RMK A01 T02370108  RH  044%=      5-min Rain = 0
KHA2 180137Z 14008KT 24/11 A2999 RMK A01 T02360108  RH  044%=      5-min Rain = 0
KHA2 180138Z 14009KT 24/11 A2999 RMK A01 T02350108  RH  045%=      5-min Rain = 0
KHA2 180139Z 14009KT 24/11 A2999 RMK A01 T02350108  RH  045%=      5-min Rain = 0
KHA2 180140Z 14009KT 24/11 A2998 RMK A01 T02350109  RH  045%=      5-min Rain = 0
KHA2 180141Z 14009KT 23/11 A2998 RMK A01 T02340109  RH  045%=      5-min Rain = 0
KHA2 180142Z 13008KT 23/11 A2998 RMK A01 T02340109  RH  045%=      5-min Rain = 0
KHA2 180143Z 14008KT 23/11 A2999 RMK A01 T02330109  RH  045%=      5-min Rain = 0
KHA2 180144Z 14008KT 23/11 A2999 RMK A01 T02330109  RH  046%=      5-min Rain = 0
KHA2 180145Z 14008KT 23/11 A2999 RMK A01 T02320109  RH  046%=      5-min Rain = 0
KHA2 180146Z 15007KT 23/11 A2999 RMK A01 T02320109  RH  046%=      5-min Rain = 0
KHA2 180147Z 15007KT 23/11 A30 RMK A01 T02310107  RH  045%=      5-min Rain = 0
KHA2 180148Z 15007KT 23/11 A30 RMK A01 T02310105  RH  045%=      5-min Rain = 0
KHA2 180149Z 15007KT 23/10 A30 RMK A01 T02310103  RH  044%=      5-min Rain = 0
KHA2 180150Z 16008KT 23/10 A30 RMK A01 T02310101  RH  044%=      5-min Rain = 0
KHA2 180151Z 17010KT 23/10 A30 RMK A01 T02310099  RH  043%=      5-min Rain = 0
KHA2 180152Z 17010KT 23/10 A30 RMK A01 T02320099  RH  043%=      5-min Rain = 0
KHA2 180153Z 17010KT 23/10 A30 RMK A01 T02340099  RH  042%=      5-min Rain = 0
KHA2 180154Z 17011KT 24/10 A30 RMK A01 T02350100  RH  042%=      5-min Rain = 0
KHA2 180155Z 16011KT 24/10 A30 RMK A01 T02360099  RH  042%=      5-min Rain = 0
KHA2 180156Z 16013KT 24/10 A30 RMK A01 T02360099  RH  042%=      5-min Rain = 0
KHA2 180157Z 15013KT 24/10 A30 RMK A01 T02370100  RH  042%=      5-min Rain = 0
KHA2 180158Z 16013KT 24/10 A3001 RMK A01 T02370100  RH  042%=      5-min Rain = 0
KHA2 180159Z 16013KT 24/10 A3001 RMK A01 T02370100  RH  042%=      5-min Rain = 0
KHA2 180200Z 16011KT 24/10 A3001 RMK A01 T02370101  RH  042%=      5-min Rain = 0
KHA2 180201Z 17010KT 24/10 A3001 RMK A01 T02380102  RH  042%=      5-min Rain = 0
KHA2 180202Z 17010KT 24/10 A3001 RMK A01 T02380101  RH  042%=      5-min Rain = 0
KHA2 180203Z 19009KT 24/10 A3001 RMK A01 T02370102  RH  042%=      5-min Rain = 0
KHA2 180204Z 19010KT 24/10 A3002 RMK A01 T02370102  RH  043%=      5-min Rain = 0
KHA2 180205Z 20010KT 24/10 A3002 RMK A01 T02370102  RH  043%=      5-min Rain = 0
KHA2 180206Z 18012KT 24/10 A3002 RMK A01 T02370103  RH  043%=      5-min Rain = 0
KHA2 180207Z 17012KT 24/10 A3002 RMK A01 T02370104  RH  043%=      5-min Rain = 0
KHA2 180208Z 18015KT 24/11 A3002 RMK A01 T02380105  RH  043%=      5-min Rain = 0
KHA2 180209Z 18013KT 24/11 A3002 RMK A01 T02400105  RH  043%=      5-min Rain = 0
KHA2 180210Z 17015KT 24/11 A3002 RMK A01 T02420106  RH  042%=      5-min Rain = 0
KHA2 180211Z 17014KT 24/11 A3002 RMK A01 T02420106  RH  042%=      5-min Rain = 0
KHA2 180212Z 18013KT 24/11 A3002 RMK A01 T02420106  RH  042%=      5-min Rain = 0
KHA2 180213Z 18012KT 24/11 A3002 RMK A01 T02420106  RH  042%=      5-min Rain = 0
KHA2 180214Z 18010KT 24/11 A3002 RMK A01 T02420107  RH  042%=      5-min Rain = 0
KHA2 180215Z 18010KT 24/11 A3003 RMK A01 T02420108  RH  043%=      5-min Rain = 0
KHA2 180216Z 18011KT 24/11 A3003 RMK A01 T02400108  RH  043%=      5-min Rain = 0
KHA2 180217Z 18011KT 24/11 A3003 RMK A01 T02390108  RH  044%=      5-min Rain = 0
KHA2 180218Z 17012KT 24/11 A3003 RMK A01 T02390108  RH  044%=      5-min Rain = 0
KHA2 180219Z 17010KT 24/11 A3003 RMK A01 T02390108  RH  044%=      5-min Rain = 0
KHA2 180220Z 18010KT 24/11 A3003 RMK A01 T02400109  RH  044%=      5-min Rain = 0
KHA2 180221Z 18012KT 24/11 A3003 RMK A01 T02390109  RH  044%=      5-min Rain = 0
KHA2 180222Z 18011KT 24/11 A3003 RMK A01 T02390109  RH  044%=      5-min Rain = 0
KHA2 180223Z 19013KT 24/11 A3003 RMK A01 T02390110  RH  044%=      5-min Rain = 0
KHA2 180224Z 20011KT 24/11 A3003 RMK A01 T02390110  RH  044%=      5-min Rain = 0
KHA2 180225Z 19011KT 24/11 A3003 RMK A01 T02390110  RH  044%=      5-min Rain = 0
KHA2 180226Z 19011KT 24/11 A3004 RMK A01 T02390110  RH  044%=      5-min Rain = 0
KHA2 180227Z 20011KT 24/11 A3004 RMK A01 T02390111  RH  044%=      5-min Rain = 0
KHA2 180228Z 22011KT 24/11 A3004 RMK A01 T02380110  RH  045%=      5-min Rain = 0
KHA2 180229Z 21011KT 24/11 A3004 RMK A01 T02370110  RH  045%=      5-min Rain = 0
KHA2 180230Z 21013KT 24/11 A3004 RMK A01 T02360110  RH  045%=      5-min Rain = 0
KHA2 180231Z 20012KT 24/11 A3004 RMK A01 T02370111  RH  045%=      5-min Rain = 0
KHA2 180232Z 20011KT 24/11 A3004 RMK A01 T02370111  RH  045%=      5-min Rain = 0
KHA2 180233Z 20008KT 24/11 A3004 RMK A01 T02360112  RH  045%=      5-min Rain = 0
KHA2 180234Z 19010KT 24/11 A3004 RMK A01 T02360112  RH  046%=      5-min Rain = 0
KHA2 180235Z 19008KT 24/11 A3004 RMK A01 T02360112  RH  046%=      5-min Rain = 0
KHA2 180236Z 20011KT 24/11 A3004 RMK A01 T02350112  RH  046%=      5-min Rain = 0
KHA2 180237Z 19010KT 24/11 A3004 RMK A01 T02360111  RH  045%=      5-min Rain = 0
KHA2 180238Z 20012KT 24/11 A3004 RMK A01 T02360112  RH  045%=      5-min Rain = 0
KHA2 180239Z 20010KT 24/11 A3004 RMK A01 T02370112  RH  045%=      5-min Rain = 0
KHA2 180240Z 21009KT 24/11 A3004 RMK A01 T02360111  RH  045%=      5-min Rain = 0
KHA2 180241Z 21008KT 24/11 A3004 RMK A01 T02360112  RH  045%=      5-min Rain = 0
KHA2 180242Z 21009KT 24/11 A3004 RMK A01 T02360112  RH  046%=      5-min Rain = 0
KHA2 180243Z 22008KT 24/11 A3004 RMK A01 T02360111  RH  046%=      5-min Rain = 0
KHA2 180244Z 22007KT 24/11 A3004 RMK A01 T02360111  RH  045%=      5-min Rain = 0
KHA2 180245Z 22007KT 24/11 A3004 RMK A01 T02360112  RH  046%=      5-min Rain = 0
KHA2 180246Z 22008KT 24/11 A3004 RMK A01 T02350111  RH  045%=      5-min Rain = 0
KHA2 180247Z 23007KT 24/11 A3004 RMK A01 T02360110  RH  045%=      5-min Rain = 0
KHA2 180248Z 22009KT 24/11 A3004 RMK A01 T02360108  RH  045%=      5-min Rain = 0
KHA2 180249Z 22008KT 24/11 A3004 RMK A01 T02360105  RH  044%=      5-min Rain = 0
KHA2 180250Z 22009KT 24/10 A3004 RMK A01 T02380103  RH  043%=      5-min Rain = 0
KHA2 180251Z 22007KT 24/10 A3004 RMK A01 T02380101  RH  042%=      5-min Rain = 0
KHA2 180252Z 23009KT 24/10 A3004 RMK A01 T02380097  RH  041%=      5-min Rain = 0
KHA2 180253Z 23009KT 24/09 A3005 RMK A01 T02390091  RH  039%=      5-min Rain = 0
KHA2 180254Z 23009KT 24/09 A3005 RMK A01 T02400088  RH  038%=      5-min Rain = 0
KHA2 180255Z 22009KT 24/09 A3005 RMK A01 T02400085  RH  037%=      5-min Rain = 0
KHA2 180256Z 21007KT 24/09 A3005 RMK A01 T02410085  RH  037%=      5-min Rain = 0
KHA2 180257Z 20009KT 24/08 A3006 RMK A01 T02410084  RH  037%=      5-min Rain = 0
KHA2 180258Z 21010KT 24/08 A3006 RMK A01 T02410083  RH  037%=      5-min Rain = 0
KHA2 180259Z 21008KT 24/08 A3006 RMK A01 T02410083  RH  037%=      5-min Rain = 0
KHA2 180300Z 20007KT 24/08 A3007 RMK A01 T02410083  RH  037%=      5-min Rain = 0
KHA2 180301Z 21006KT 24/08 A3007 RMK A01 T02400084  RH  037%=      5-min Rain = 0
KHA2 180302Z 22006KT 24/09 A3007 RMK A01 T02400085  RH  037%=      5-min Rain = 0
KHA2 180303Z 23005KT 24/09 A3008 RMK A01 T02390085  RH  037%=      5-min Rain = 0
KHA2 180304Z 22005KT 24/09 A3008 RMK A01 T02390085  RH  038%=      5-min Rain = 0
KHA2 180305Z 22003KT 24/09 A3008 RMK A01 T02380085  RH  038%=      5-min Rain = 0
KHA2 180306Z 20006KT 24/09 A3009 RMK A01 T02380087  RH  038%=      5-min Rain = 0
KHA2 180307Z 22008KT 24/09 A3009 RMK A01 T02380087  RH  038%=      5-min Rain = 0
KHA2 180308Z 23006KT 24/09 A301 RMK A01 T02380086  RH  038%=      5-min Rain = 0
KHA2 180309Z 25007KT 24/09 A301 RMK A01 T02390085  RH  037%=      5-min Rain = 0
KHA2 180310Z 30010KT 24/08 A3011 RMK A01 T02400084  RH  037%=      5-min Rain = 0
KHA2 180311Z 30012G19KT 24/09 A3012 RMK A01 T02410085  RH  037%=      5-min Rain = 0
KHA2 180312Z 31026G31KT 24/11 A3012 RMK A01 T02370106  RH  043%=      5-min Rain = 0
KHA2 180313Z 32020KT 22/12 A3012 RMK A01 T02230124  RH  053%=      5-min Rain = 0
KHA2 180314Z 32021G27KT 21/13 A3012 RMK A01 T02130128  RH  058%=      5-min Rain = 0
KHA2 180315Z 32022KT 21/13 A3012 RMK A01 T02070132  RH  062%=      5-min Rain = 0
KHA2 180316Z 32022G27KT 20/13 A3012 RMK A01 T02040134  RH  064%=      5-min Rain = 0
KHA2 180317Z 33022KT 20/14 A3012 RMK A01 T02010136  RH  066%=      5-min Rain = 0
KHA2 180318Z 32021KT 20/14 A3012 RMK A01 T01990136  RH  067%=      5-min Rain = 0
KHA2 180319Z 30017G22KT 20/14 A3013 RMK A01 T01980137  RH  068%=      5-min Rain = 0
KHA2 180320Z 32017G22KT 20/14 A3013 RMK A01 T01970138  RH  069%=      5-min Rain = 0
KHA2 180321Z 32018G23KT 20/14 A3013 RMK A01 T01960139  RH  070%=      5-min Rain = 0
KHA2 180322Z 31018KT 19/14 A3013 RMK A01 T01940141  RH  071%=      5-min Rain = 0
KHA2 180323Z 31017KT 19/14 A3013 RMK A01 T01930143  RH  073%=      5-min Rain = 0
KHA2 180324Z 32020KT 19/15 A3013 RMK A01 T01910145  RH  075%=      5-min Rain = 0
KHA2 180325Z 32017KT 19/15 A3013 RMK A01 T01890146  RH  076%=      5-min Rain = 0
KHA2 180326Z 32018KT 19/15 A3014 RMK A01 T01870146  RH  077%=      5-min Rain = 0
KHA2 180327Z 32016KT 19/15 A3014 RMK A01 T01860147  RH  078%=      5-min Rain = 0
KHA2 180328Z 33012G17KT 19/15 A3014 RMK A01 T01850147  RH  079%=      5-min Rain = 0
KHA2 180329Z 33013KT 18/15 A3014 RMK A01 T01840146  RH  079%=      5-min Rain = 0
KHA2 180330Z 35010KT 18/15 A3013 RMK A01 T01830147  RH  079%=      5-min Rain = 0
KHA2 180331Z 35013KT 18/15 A3013 RMK A01 T01820147  RH  080%=      5-min Rain = 0
KHA2 180332Z 35014KT 18/15 A3013 RMK A01 T01810149  RH  081%=      5-min Rain = 0
KHA2 180333Z 35009KT 18/15 A3014 RMK A01 T01800148  RH  082%=      5-min Rain = 0
KHA2 180334Z 33008KT 18/15 A3014 RMK A01 T01800149  RH  083%=      5-min Rain = 0
KHA2 180335Z 33005KT 18/15 A3014 RMK A01 T01790149  RH  083%=      5-min Rain = 0
KHA2 180336Z 29002KT 18/15 A3014 RMK A01 T01790150  RH  083%=      5-min Rain = 0
KHA2 180337Z 28005KT 18/15 A3015 RMK A01 T01790150  RH  083%=      5-min Rain = 0
KHA2 180338Z 02004KT 18/15 A3015 RMK A01 T01790149  RH  083%=      5-min Rain = 0
KHA2 180339Z 10003KT 18/15 A3015 RMK A01 T01790150  RH  083%=      5-min Rain = 0
KHA2 180340Z 13002KT 18/15 A3015 RMK A01 T01780150  RH  084%=      5-min Rain = 0
KHA2 180341Z 16003KT 18/15 A3016 RMK A01 T01780149  RH  083%=      5-min Rain = 0
KHA2 180342Z 14005KT 18/15 A3016 RMK A01 T01780150  RH  084%=      5-min Rain = 0
KHA2 180343Z 14007KT 18/15 A3016 RMK A01 T01770151  RH  084%=      5-min Rain = 0
KHA2 180344Z 13007KT 18/15 A3016 RMK A01 T01760151  RH  085%=      5-min Rain = 0
KHA2 180345Z 12008KT 18/15 A3016 RMK A01 T01760152  RH  086%=      5-min Rain = 0
KHA2 180346Z 12007KT 18/15 A3017 RMK A01 T01750150  RH  086%=      5-min Rain = 0
KHA2 180347Z 13007KT 18/15 A3017 RMK A01 T01750150  RH  085%=      5-min Rain = 0
KHA2 180348Z 13007KT 18/15 A3017 RMK A01 T01750149  RH  085%=      5-min Rain = 0
KHA2 180349Z 15008KT 18/15 A3017 RMK A01 T01750149  RH  085%=      5-min Rain = 0
KHA2 180350Z 15006KT 18/15 A3017 RMK A01 T01760145  RH  082%=      5-min Rain = 0
KHA2 180351Z 15002KT 18/15 A3017 RMK A01 T01780145  RH  081%=      5-min Rain = 0
KHA2 180352Z 16004KT 18/15 A3016 RMK A01 T01780145  RH  081%=      5-min Rain = 0
KHA2 180353Z 20003KT 18/15 A3016 RMK A01 T01780145  RH  081%=      5-min Rain = 0
KHA2 180354Z 03003KT 18/15 A3017 RMK A01 T01790146  RH  081%=      5-min Rain = 0
KHA2 180355Z 01003KT 18/15 A3016 RMK A01 T01790147  RH  081%=      5-min Rain = 0
KHA2 180356Z 36003KT 18/15 A3016 RMK A01 T01790147  RH  082%=      5-min Rain = 0
KHA2 180357Z 32003KT 18/14 A3016 RMK A01 T01780142  RH  079%=      5-min Rain = 0
KHA2 180358Z 32004KT 18/14 A3016 RMK A01 T01790139  RH  077%=      5-min Rain = 0
KHA2 180359Z 32005KT 18/14 A3016 RMK A01 T01800141  RH  078%=      5-min Rain = 0
KHA2 180400Z 32005KT 18/14 A3016 RMK A01 T01810141  RH  078%=      5-min Rain = 0.01
KHA2 180401Z 33009KT 18/14 A3016 RMK A01 T01810140  RH  077%=      5-min Rain = 0
KHA2 180402Z 31011KT 18/14 A3016 RMK A01 T01810140  RH  077%=      5-min Rain = 0
KHA2 180403Z 32010KT 18/14 A3016 RMK A01 T01810141  RH  077%=      5-min Rain = 0
KHA2 180404Z 33009KT 18/14 A3016 RMK A01 T01810144  RH  079%=      5-min Rain = 0
KHA2 180405Z 32010KT 18/14 A3016 RMK A01 T01810143  RH  079%=      5-min Rain = 0
KHA2 180406Z 32014KT 18/14 A3016 RMK A01 T01800143  RH  079%=      5-min Rain = 0
KHA2 180407Z 32014KT 18/14 A3016 RMK A01 T01800139  RH  077%=      5-min Rain = 0.01
KHA2 180408Z 32011KT 18/14 A3016 RMK A01 T01790142  RH  079%=      5-min Rain = 0
KHA2 180409Z 32011KT 18/15 A3016 RMK A01 T01780146  RH  082%=      5-min Rain = 0
KHA2 180410Z 32012KT 18/15 A3016 RMK A01 T01770145  RH  082%=      5-min Rain = 0
KHA2 180411Z 32012KT 18/15 A3016 RMK A01 T01760145  RH  082%=      5-min Rain = 0
KHA2 180412Z 32011KT 18/14 A3016 RMK A01 T01760144  RH  081%=      5-min Rain = 0
KHA2 180413Z 32011KT 18/15 A3016 RMK A01 T01760146  RH  082%=      5-min Rain = 0.01
KHA2 180414Z 31011KT 18/15 A3016 RMK A01 T01750147  RH  083%=      5-min Rain = 0
KHA2 180415Z 31012KT 18/14 A3016 RMK A01 T01750143  RH  082%=      5-min Rain = 0
KHA2 180416Z 31010KT 17/14 A3016 RMK A01 T01740143  RH  082%=      5-min Rain = 0.01
KHA2 180417Z 30010KT 17/15 A3017 RMK A01 T01740145  RH  083%=      5-min Rain = 0
KHA2 180418Z 31011KT 18/15 A3017 RMK A01 T01750145  RH  083%=      5-min Rain = 0
KHA2 180419Z 30010KT 17/14 A3017 RMK A01 T01740142  RH  081%=      5-min Rain = 0
KHA2 180420Z 30009KT 18/14 A3017 RMK A01 T01750140  RH  080%=      5-min Rain = 0
KHA2 180421Z 30010KT 18/14 A3017 RMK A01 T01750143  RH  081%=      5-min Rain = 0.01
KHA2 180422Z 30011KT 18/14 A3017 RMK A01 T01750143  RH  081%=      5-min Rain = 0
KHA2 180423Z 30008KT 17/14 A3017 RMK A01 T01740142  RH  081%=      5-min Rain = 0
KHA2 180424Z 30009KT 17/14 A3017 RMK A01 T01740142  RH  081%=      5-min Rain = 0
KHA2 180425Z 30009KT 17/14 A3017 RMK A01 T01740141  RH  081%=      5-min Rain = 0
KHA2 180426Z 28010KT 18/14 A3017 RMK A01 T01750142  RH  081%=      5-min Rain = 0.01
KHA2 180427Z 28010KT 18/14 A3017 RMK A01 T01750140  RH  080%=      5-min Rain = 0
KHA2 180428Z 29009KT 18/14 A3017 RMK A01 T01760140  RH  080%=      5-min Rain = 0
KHA2 180429Z 29010KT 18/14 A3016 RMK A01 T01760141  RH  080%=      5-min Rain = 0
KHA2 180430Z 30013KT 18/14 A3016 RMK A01 T01760139  RH  079%=      5-min Rain = 0.01
KHA2 180431Z 30013KT 18/14 A3016 RMK A01 T01760139  RH  079%=      5-min Rain = 0
KHA2 180432Z 31010KT 18/14 A3016 RMK A01 T01760140  RH  079%=      5-min Rain = 0
KHA2 180433Z 30010KT 18/14 A3016 RMK A01 T01750141  RH  081%=      5-min Rain = 0.01
KHA2 180434Z 29011KT 17/14 A3016 RMK A01 T01740144  RH  082%=      5-min Rain = 0
KHA2 180435Z 29012KT 17/14 A3016 RMK A01 T01730142  RH  082%=      5-min Rain = 0
KHA2 180436Z 29010KT 17/14 A3016 RMK A01 T01730141  RH  082%=      5-min Rain = 0
KHA2 180437Z 30011KT 17/14 A3016 RMK A01 T01730143  RH  083%=      5-min Rain = 0
KHA2 180438Z 30011KT 17/14 A3016 RMK A01 T01720144  RH  084%=      5-min Rain = 0.01
KHA2 180439Z 29011KT 17/14 A3016 RMK A01 T01710144  RH  084%=      5-min Rain = 0
KHA2 180440Z 30011KT 17/14 A3016 RMK A01 T01710142  RH  083%=      5-min Rain = 0
KHA2 180441Z 29010KT 17/14 A3016 RMK A01 T01710142  RH  083%=      5-min Rain = 0
KHA2 180442Z 29011KT 17/14 A3016 RMK A01 T01710142  RH  083%=      5-min Rain = 0.01
KHA2 180443Z 30011KT 17/14 A3016 RMK A01 T01710141  RH  083%=      5-min Rain = 0
KHA2 180444Z 30010KT 17/14 A3016 RMK A01 T01710142  RH  083%=      5-min Rain = 0
KHA2 180445Z 30010KT 17/14 A3016 RMK A01 T01710142  RH  083%=      5-min Rain = 0
KHA2 180446Z 30008KT 17/14 A3016 RMK A01 T01710143  RH  084%=      5-min Rain = 0.01
KHA2 180447Z 31009KT 17/14 A3015 RMK A01 T01700144  RH  085%=      5-min Rain = 0
KHA2 180448Z 30007KT 17/15 A3015 RMK A01 T01700145  RH  085%=      5-min Rain = 0
KHA2 180449Z 30007KT 17/15 A3015 RMK A01 T01690145  RH  086%=      5-min Rain = 0
KHA2 180450Z 30008KT 17/15 A3015 RMK A01 T01690146  RH  086%=      5-min Rain = 0
KHA2 180451Z 30007KT 17/15 A3015 RMK A01 T01680146  RH  087%=      5-min Rain = 0.01
KHA2 180452Z 31006KT 17/14 A3015 RMK A01 T01680144  RH  086%=      5-min Rain = 0
KHA2 180453Z 31006KT 17/15 A3015 RMK A01 T01680146  RH  087%=      5-min Rain = 0
KHA2 180454Z 33005KT 17/15 A3014 RMK A01 T01680146  RH  087%=      5-min Rain = 0
KHA2 180455Z 34003KT 17/15 A3013 RMK A01 T01680146  RH  087%=      5-min Rain = 0
KHA2 180456Z 02003KT 17/15 A3013 RMK A01 T01670145  RH  087%=      5-min Rain = 0
KHA2 180457Z 04004KT 17/15 A3012 RMK A01 T01670146  RH  087%=      5-min Rain = 0.01
KHA2 180458Z 05006KT 17/15 A3011 RMK A01 T01670146  RH  088%=      5-min Rain = 0
KHA2 180459Z 06007KT 17/15 A3011 RMK A01 T01660146  RH  088%=      5-min Rain = 0

Page generated in 0.0698 seconds.